Wetterdaten: Samstag, 04.10.2014
Datum Zeit Temp. Aussen +5cm Feuchte Auss Luftdruck Regen Sonnenschein Regendauer Solar Windben
04.10.2014 00:00 14,2 C 12,2 C 91 % 1020,9 hPa 0,0 l/m 0 min 0 min 0 W/m 8,4 km/h (2 Bft)
04.10.2014 00:02 14,2 C 12,2 C 91 % 1020,8 hPa 0,0 l/m 0 min 0 min 0 W/m 4,2 km/h (1 Bft)
04.10.2014 00:05 14,2 C 12,2 C 91 % 1020,9 hPa 0,0 l/m 0 min 0 min 0 W/m 8,4 km/h (2 Bft)
04.10.2014 00:08 14,2 C 12,2 C 91 % 1020,8 hPa 0,0 l/m 0 min 0 min 0 W/m 8,4 km/h (2 Bft)
04.10.2014 00:10 14,2 C 12,2 C 91 % 1020,8 hPa 0,0 l/m 0 min 0 min 0 W/m 6,3 km/h (2 Bft)
04.10.2014 00:12 14,2 C 12,2 C 91 % 1020,8 hPa 0,0 l/m 0 min 0 min 0 W/m 8,4 km/h (2 Bft)
04.10.2014 00:14 14,2 C 12,2 C 91 % 1020,8 hPa 0,0 l/m 0 min 0 min 0 W/m 6,3 km/h (2 Bft)
04.10.2014 00:16 14,2 C 12,2 C 92 % 1020,9 hPa 0,0 l/m 0 min 0 min 0 W/m 6,3 km/h (2 Bft)
04.10.2014 00:18 14,2 C 12,2 C 92 % 1020,8 hPa 0,0 l/m 0 min 0 min 0 W/m 4,2 km/h (1 Bft)
04.10.2014 00:20 14,2 C 12,2 C 92 % 1020,8 hPa 0,0 l/m 0 min 0 min 0 W/m 6,3 km/h (2 Bft)
04.10.2014 00:22 14,2 C 12,2 C 92 % 1020,8 hPa 0,0 l/m 0 min 0 min 0 W/m 6,3 km/h (2 Bft)
04.10.2014 00:24 14,1 C 12,2 C 92 % 1020,8 hPa 0,0 l/m 0 min 0 min 0 W/m 4,2 km/h (1 Bft)
04.10.2014 00:26 14,1 C 12,2 C 92 % 1020,8 hPa 0,0 l/m 0 min 0 min 0 W/m 6,3 km/h (2 Bft)
04.10.2014 00:28 14,1 C 12,2 C 92 % 1020,9 hPa 0,0 l/m 0 min 0 min 0 W/m 6,3 km/h (2 Bft)
04.10.2014 00:30 14,1 C 12,2 C 92 % 1020,8 hPa 0,0 l/m 0 min 0 min 0 W/m 6,3 km/h (2 Bft)
04.10.2014 00:32 14,0 C 12,2 C 92 % 1020,8 hPa 0,0 l/m 0 min 0 min 0 W/m 6,3 km/h (2 Bft)
04.10.2014 00:34 14,0 C 12,2 C 92 % 1020,7 hPa 0,0 l/m 0 min 0 min 0 W/m 8,4 km/h (2 Bft)
04.10.2014 00:36 13,9 C 12,2 C 92 % 1020,7 hPa 0,0 l/m 0 min 0 min 0 W/m 8,4 km/h (2 Bft)
04.10.2014 00:38 13,9 C 12,2 C 92 % 1020,7 hPa 0,0 l/m 0 min 0 min 0 W/m 8,4 km/h (2 Bft)
04.10.2014 00:40 13,9 C 12,2 C 92 % 1020,6 hPa 0,0 l/m 0 min 0 min 0 W/m 10,5 km/h (2 Bft)
04.10.2014 00:42 13,9 C 12,2 C 92 % 1020,6 hPa 0,0 l/m 0 min 0 min 0 W/m 6,3 km/h (2 Bft)
04.10.2014 00:44 13,9 C 12,2 C 92 % 1020,6 hPa 0,0 l/m 0 min 0 min 0 W/m 8,4 km/h (2 Bft)
04.10.2014 00:46 13,8 C 12,2 C 92 % 1020,6 hPa 0,0 l/m 0 min 0 min 0 W/m 8,4 km/h (2 Bft)
04.10.2014 00:48 13,8 C 12,2 C 92 % 1020,6 hPa 0,0 l/m 0 min 0 min 0 W/m 10,5 km/h (2 Bft)
04.10.2014 00:50 13,8 C 12,2 C 92 % 1020,6 hPa 0,0 l/m 0 min 0 min 0 W/m 8,4 km/h (2 Bft)
04.10.2014 00:52 13,8 C 12,2 C 92 % 1020,5 hPa 0,0 l/m 0 min 0 min 0 W/m 8,4 km/h (2 Bft)
04.10.2014 00:54 13,8 C 12,2 C 92 % 1020,5 hPa 0,0 l/m 0 min 0 min 0 W/m 12,6 km/h (3 Bft)
04.10.2014 00:56 13,8 C 12,2 C 92 % 1020,5 hPa 0,0 l/m 0 min 0 min 0 W/m 8,4 km/h (2 Bft)
04.10.2014 00:58 13,7 C 12,2 C 92 % 1020,5 hPa 0,0 l/m 0 min 0 min 0 W/m 10,5 km/h (2 Bft)
04.10.2014 01:00 13,7 C 12,2 C 92 % 1020,5 hPa 0,0 l/m 0 min 0 min 0 W/m 6,3 km/h (2 Bft)
04.10.2014 01:02 13,7 C 12,2 C 93 % 1020,5 hPa 0,0 l/m 0 min 0 min 0 W/m 8,4 km/h (2 Bft)
04.10.2014 01:04 13,7 C 12,2 C 93 % 1020,5 hPa 0,0 l/m 0 min 0 min 0 W/m 10,5 km/h (2 Bft)
04.10.2014 01:06 13,7 C 12,2 C 92 % 1020,5 hPa 0,0 l/m 0 min 0 min 0 W/m 8,4 km/h (2 Bft)
04.10.2014 01:08 13,7 C 12,2 C 92 % 1020,4 hPa 0,0 l/m 0 min 0 min 0 W/m 10,5 km/h (2 Bft)
04.10.2014 01:10 13,7 C 12,2 C 92 % 1020,4 hPa 0,0 l/m 0 min 0 min 0 W/m 8,4 km/h (2 Bft)
04.10.2014 01:12 13,6 C 12,2 C 92 % 1020,5 hPa 0,0 l/m 0 min 0 min 0 W/m 8,4 km/h (2 Bft)
04.10.2014 01:14 13,6 C 12,2 C 93 % 1020,4 hPa 0,0 l/m 0 min 0 min 0 W/m 8,4 km/h (2 Bft)
04.10.2014 01:16 13,6 C 12,2 C 93 % 1020,3 hPa 0,0 l/m 0 min 0 min 0 W/m 8,4 km/h (2 Bft)
04.10.2014 01:18 13,6 C 12,2 C 93 % 1020,4 hPa 0,0 l/m 0 min 0 min 0 W/m 12,6 km/h (3 Bft)
04.10.2014 01:20 13,6 C 12,2 C 93 % 1020,3 hPa 0,0 l/m 0 min 0 min 0 W/m 10,5 km/h (2 Bft)
04.10.2014 01:22 13,6 C 12,2 C 93 % 1020,3 hPa 0,0 l/m 0 min 0 min 0 W/m 10,5 km/h (2 Bft)
04.10.2014 01:24 13,6 C 12,2 C 93 % 1020,3 hPa 0,0 l/m 0 min 0 min 0 W/m 8,4 km/h (2 Bft)
04.10.2014 01:26 13,6 C 12,2 C 93 % 1020,3 hPa 0,0 l/m 0 min 0 min 0 W/m 10,5 km/h (2 Bft)
04.10.2014 01:28 13,6 C 12,2 C 93 % 1020,3 hPa 0,0 l/m 0 min 0 min 0 W/m 14,6 km/h (3 Bft)
04.10.2014 01:30 13,6 C 12,2 C 93 % 1020,2 hPa 0,0 l/m 0 min 0 min 0 W/m 12,6 km/h (3 Bft)
04.10.2014 01:32 13,6 C 12,2 C 93 % 1020,2 hPa 0,0 l/m 0 min 0 min 0 W/m 12,6 km/h (3 Bft)
04.10.2014 01:34 13,6 C 12,2 C 93 % 1020,2 hPa 0,0 l/m 0 min 0 min 0 W/m 14,6 km/h (3 Bft)
04.10.2014 01:36 13,6 C 12,2 C 93 % 1020,1 hPa 0,0 l/m 0 min 0 min 0 W/m 16,7 km/h (3 Bft)
04.10.2014 01:38 13,6 C 12,2 C 93 % 1020,2 hPa 0,0 l/m 0 min 0 min 0 W/m 8,4 km/h (2 Bft)
04.10.2014 01:40 13,6 C 12,2 C 94 % 1020,1 hPa 0,0 l/m 0 min 0 min 0 W/m 12,6 km/h (3 Bft)
04.10.2014 01:42 13,5 C 12,2 C 94 % 1020,1 hPa 0,0 l/m 0 min 0 min 0 W/m 12,6 km/h (3 Bft)
04.10.2014 01:44 13,5 C 12,2 C 94 % 1020,1 hPa 0,0 l/m 0 min 0 min 0 W/m 10,5 km/h (2 Bft)
04.10.2014 01:46 13,5 C 12,2 C 94 % 1020,1 hPa 0,0 l/m 0 min 0 min 0 W/m 14,6 km/h (3 Bft)
04.10.2014 01:48 13,5 C 12,2 C 94 % 1020,1 hPa 0,0 l/m 0 min 0 min 0 W/m 8,4 km/h (2 Bft)
04.10.2014 01:50 13,5 C 12,2 C 94 % 1020,0 hPa 0,0 l/m 0 min 0 min 0 W/m 14,6 km/h (3 Bft)
04.10.2014 01:52 13,5 C 12,2 C 94 % 1020,0 hPa 0,0 l/m 0 min 0 min 0 W/m 10,5 km/h (2 Bft)
04.10.2014 01:54 13,5 C 12,2 C 94 % 1020,0 hPa 0,0 l/m 0 min 0 min 0 W/m 10,5 km/h (2 Bft)
04.10.2014 01:56 13,5 C 12,2 C 94 % 1020,0 hPa 0,0 l/m 0 min 0 min 0 W/m 10,5 km/h (2 Bft)
04.10.2014 01:58 13,5 C 12,2 C 94 % 1020,0 hPa 0,0 l/m 0 min 0 min 0 W/m 10,5 km/h (2 Bft)
04.10.2014 02:00 13,4 C 12,2 C 94 % 1020,0 hPa 0,0 l/m 0 min 0 min 0 W/m 10,5 km/h (2 Bft)
04.10.2014 02:02 13,4 C 12,2 C 94 % 1020,0 hPa 0,0 l/m 0 min 0 min 0 W/m 8,4 km/h (2 Bft)
04.10.2014 02:04 13,4 C 12,2 C 94 % 1019,9 hPa 0,0 l/m 0 min 0 min 0 W/m 12,6 km/h (3 Bft)
04.10.2014 02:06 13,4 C 12,2 C 94 % 1019,9 hPa 0,0 l/m 0 min 0 min 0 W/m 8,4 km/h (2 Bft)
04.10.2014 02:08 13,4 C 12,2 C 94 % 1019,9 hPa 0,0 l/m 0 min 0 min 0 W/m 8,4 km/h (2 Bft)
04.10.2014 02:10 13,4 C 12,2 C 94 % 1019,9 hPa 0,0 l/m 0 min 0 min 0 W/m 8,4 km/h (2 Bft)
04.10.2014 02:12 13,4 C 11,7 C 94 % 1019,9 hPa 0,0 l/m 0 min 0 min 0 W/m 10,5 km/h (2 Bft)
04.10.2014 02:14 13,4 C 11,7 C 94 % 1019,9 hPa 0,0 l/m 0 min 0 min 0 W/m 12,6 km/h (3 Bft)
04.10.2014 02:16 13,4 C 11,7 C 94 % 1019,9 hPa 0,0 l/m 0 min 0 min 0 W/m 8,4 km/h (2 Bft)
04.10.2014 02:18 13,3 C 11,7 C 94 % 1019,9 hPa 0,0 l/m 0 min 0 min 0 W/m 12,6 km/h (3 Bft)
04.10.2014 02:20 13,3 C 11,7 C 94 % 1019,9 hPa 0,0 l/m 0 min 0 min 0 W/m 10,5 km/h (2 Bft)
04.10.2014 02:22 13,3 C 11,7 C 94 % 1019,8 hPa 0,0 l/m 0 min 0 min 0 W/m 10,5 km/h (2 Bft)
04.10.2014 02:24 13,3 C 11,7 C 94 % 1019,9 hPa 0,0 l/m 0 min 0 min 0 W/m 10,5 km/h (2 Bft)
04.10.2014 02:26 13,3 C 11,7 C 94 % 1019,8 hPa 0,0 l/m 0 min 0 min 0 W/m 14,6 km/h (3 Bft)
04.10.2014 02:28 13,3 C 11,7 C 94 % 1019,8 hPa 0,0 l/m 0 min 0 min 0 W/m 12,6 km/h (3 Bft)
04.10.2014 02:30 13,3 C 11,7 C 94 % 1019,8 hPa 0,0 l/m 0 min 0 min 0 W/m 10,5 km/h (2 Bft)
04.10.2014 02:32 13,3 C 11,7 C 94 % 1019,8 hPa 0,0 l/m 0 min 0 min 0 W/m 10,5 km/h (2 Bft)
04.10.2014 02:34 13,2 C 11,7 C 94 % 1019,9 hPa 0,0 l/m 0 min 0 min 0 W/m 12,6 km/h (3 Bft)
04.10.2014 02:36 13,2 C 11,7 C 94 % 1019,9 hPa 0,0 l/m 0 min 0 min 0 W/m 10,5 km/h (2 Bft)
04.10.2014 02:38 13,2 C 11,7 C 94 % 1019,8 hPa 0,0 l/m 0 min 0 min 0 W/m 8,4 km/h (2 Bft)
04.10.2014 02:40 13,2 C 11,7 C 94 % 1019,8 hPa 0,0 l/m 0 min 0 min 0 W/m 10,5 km/h (2 Bft)
04.10.2014 02:42 13,2 C 11,7 C 94 % 1019,8 hPa 0,0 l/m 0 min 0 min 0 W/m 10,5 km/h (2 Bft)
04.10.2014 02:44 13,2 C 11,7 C 94 % 1019,7 hPa 0,0 l/m 0 min 0 min 0 W/m 6,3 km/h (2 Bft)
04.10.2014 02:46 13,2 C 11,7 C 94 % 1019,8 hPa 0,0 l/m 0 min 0 min 0 W/m 12,6 km/h (3 Bft)
04.10.2014 02:48 13,1 C 11,7 C 94 % 1019,7 hPa 0,0 l/m 0 min 0 min 0 W/m 10,5 km/h (2 Bft)
04.10.2014 02:50 13,1 C 11,7 C 94 % 1019,6 hPa 0,0 l/m 0 min 0 min 0 W/m 10,5 km/h (2 Bft)
04.10.2014 02:52 13,1 C 11,7 C 94 % 1019,6 hPa 0,0 l/m 0 min 0 min 0 W/m 14,6 km/h (3 Bft)
04.10.2014 02:54 13,1 C 11,7 C 94 % 1019,6 hPa 0,0 l/m 0 min 0 min 0 W/m 6,3 km/h (2 Bft)
04.10.2014 02:56 13,1 C 11,7 C 94 % 1019,6 hPa 0,0 l/m 0 min 0 min 0 W/m 10,5 km/h (2 Bft)
04.10.2014 02:58 13,0 C 11,7 C 94 % 1019,6 hPa 0,0 l/m 0 min 0 min 0 W/m 10,5 km/h (2 Bft)
04.10.2014 03:00 13,0 C 11,7 C 94 % 1019,6 hPa 0,0 l/m 0 min 0 min 0 W/m 14,6 km/h (3 Bft)
04.10.2014 03:02 12,9 C 11,7 C 94 % 1019,6 hPa 0,0 l/m 0 min 0 min 0 W/m 12,6 km/h (3 Bft)
04.10.2014 03:04 12,9 C 11,7 C 94 % 1019,6 hPa 0,0 l/m 0 min 0 min 0 W/m 12,6 km/h (3 Bft)
04.10.2014 03:06 12,9 C 11,7 C 94 % 1019,5 hPa 0,0 l/m 0 min 0 min 0 W/m 10,5 km/h (2 Bft)
04.10.2014 03:08 12,9 C 11,7 C 94 % 1019,5 hPa 0,0 l/m 0 min 0 min 0 W/m 8,4 km/h (2 Bft)
04.10.2014 03:10 12,9 C 11,7 C 94 % 1019,5 hPa 0,0 l/m 0 min 0 min 0 W/m 10,5 km/h (2 Bft)
04.10.2014 03:12 12,9 C 11,7 C 94 % 1019,4 hPa 0,0 l/m 0 min 0 min 0 W/m 10,5 km/h (2 Bft)
04.10.2014 03:14 12,8 C 11,7 C 94 % 1019,4 hPa 0,0 l/m 0 min 0 min 0 W/m 10,5 km/h (2 Bft)
04.10.2014 03:16 12,8 C 11,7 C 94 % 1019,4 hPa 0,0 l/m 0 min 0 min 0 W/m 12,6 km/h (3 Bft)
04.10.2014 03:18 12,8 C 11,7 C 94 % 1019,4 hPa 0,0 l/m 0 min 0 min 0 W/m 8,4 km/h (2 Bft)
04.10.2014 03:20 12,8 C 11,7 C 94 % 1019,3 hPa 0,0 l/m 0 min 0 min 0 W/m 10,5 km/h (2 Bft)
04.10.2014 03:22 12,8 C 11,7 C 94 % 1019,3 hPa 0,0 l/m 0 min 0 min 0 W/m 10,5 km/h (2 Bft)
04.10.2014 03:24 12,8 C 11,7 C 94 % 1019,2 hPa 0,0 l/m 0 min 0 min 0 W/m 8,4 km/h (2 Bft)
04.10.2014 03:26 12,7 C 11,7 C 94 % 1019,2 hPa 0,0 l/m 0 min 0 min 0 W/m 8,4 km/h (2 Bft)
04.10.2014 03:28 12,7 C 11,7 C 94 % 1019,1 hPa 0,0 l/m 0 min 0 min 0 W/m 12,6 km/h (3 Bft)
04.10.2014 03:30 12,7 C 11,7 C 94 % 1019,1 hPa 0,0 l/m 0 min 0 min 0 W/m 8,4 km/h (2 Bft)
04.10.2014 03:32 12,7 C 11,7 C 94 % 1019,1 hPa 0,0 l/m 0 min 0 min 0 W/m 10,5 km/h (2 Bft)
04.10.2014 03:34 12,7 C 11,1 C 94 % 1019,1 hPa 0,0 l/m 0 min 0 min 0 W/m 10,5 km/h (2 Bft)
04.10.2014 03:36 12,7 C 11,1 C 94 % 1019,1 hPa 0,0 l/m 0 min 0 min 0 W/m 8,4 km/h (2 Bft)
04.10.2014 03:38 12,6 C 11,1 C 94 % 1019,1 hPa 0,0 l/m 0 min 0 min 0 W/m 10,5 km/h (2 Bft)
04.10.2014 03:40 12,6 C 11,1 C 94 % 1019,1 hPa 0,0 l/m 0 min 0 min 0 W/m 10,5 km/h (2 Bft)
04.10.2014 03:42 12,6 C 11,1 C 94 % 1019,0 hPa 0,0 l/m 0 min 0 min 0 W/m 12,6 km/h (3 Bft)
04.10.2014 03:44 12,6 C 11,1 C 94 % 1019,0 hPa 0,0 l/m 0 min 0 min 0 W/m 12,6 km/h (3 Bft)
04.10.2014 03:46 12,6 C 11,1 C 94 % 1019,0 hPa 0,0 l/m 0 min 0 min 0 W/m 10,5 km/h (2 Bft)
04.10.2014 03:48 12,6 C 11,1 C 94 % 1019,1 hPa 0,0 l/m 0 min 0 min 0 W/m 12,6 km/h (3 Bft)
04.10.2014 03:50 12,6 C 11,1 C 94 % 1019,0 hPa 0,0 l/m 0 min 0 min 0 W/m 8,4 km/h (2 Bft)
04.10.2014 03:52 12,6 C 11,1 C 94 % 1019,0 hPa 0,0 l/m 0 min 0 min 0 W/m 16,7 km/h (3 Bft)
04.10.2014 03:54 12,5 C 11,1 C 94 % 1019,0 hPa 0,0 l/m 0 min 0 min 0 W/m 14,6 km/h (3 Bft)
04.10.2014 03:56 12,6 C 11,1 C 94 % 1018,9 hPa 0,0 l/m 0 min 0 min 0 W/m 18,8 km/h (3 Bft)
04.10.2014 03:58 12,5 C 11,1 C 95 % 1019,0 hPa 0,0 l/m 0 min 0 min 0 W/m 10,5 km/h (2 Bft)
04.10.2014 04:00 12,5 C 11,1 C 95 % 1019,0 hPa 0,0 l/m 0 min 0 min 0 W/m 12,6 km/h (3 Bft)
04.10.2014 04:02 12,5 C 11,1 C 94 % 1018,9 hPa 0,0 l/m 0 min 0 min 0 W/m 14,6 km/h (3 Bft)
04.10.2014 04:04 12,5 C 11,1 C 94 % 1018,9 hPa 0,0 l/m 0 min 0 min 0 W/m 14,6 km/h (3 Bft)
04.10.2014 04:06 12,5 C 11,1 C 94 % 1019,0 hPa 0,0 l/m 0 min 0 min 0 W/m 16,7 km/h (3 Bft)
04.10.2014 04:08 12,5 C 11,1 C 94 % 1019,0 hPa 0,0 l/m 0 min 0 min 0 W/m 14,6 km/h (3 Bft)
04.10.2014 04:10 12,4 C 11,1 C 94 % 1018,9 hPa 0,0 l/m 0 min 0 min 0 W/m 16,7 km/h (3 Bft)
04.10.2014 04:12 12,4 C 11,1 C 95 % 1018,8 hPa 0,0 l/m 0 min 0 min 0 W/m 14,6 km/h (3 Bft)
04.10.2014 04:14 12,4 C 11,1 C 95 % 1018,8 hPa 0,0 l/m 0 min 0 min 0 W/m 16,7 km/h (3 Bft)
04.10.2014 04:16 12,4 C 11,1 C 95 % 1018,8 hPa 0,0 l/m 0 min 0 min 0 W/m 14,6 km/h (3 Bft)
04.10.2014 04:18 12,4 C 11,1 C 95 % 1018,8 hPa 0,0 l/m 0 min 0 min 0 W/m 16,7 km/h (3 Bft)
04.10.2014 04:20 12,4 C 11,1 C 95 % 1018,7 hPa 0,0 l/m 0 min 0 min 0 W/m 12,6 km/h (3 Bft)
04.10.2014 04:22 12,4 C 11,1 C 95 % 1018,8 hPa 0,0 l/m 0 min 0 min 0 W/m 16,7 km/h (3 Bft)
04.10.2014 04:24 12,4 C 11,1 C 95 % 1018,7 hPa 0,0 l/m 0 min 0 min 0 W/m 12,6 km/h (3 Bft)
04.10.2014 04:26 12,4 C 11,1 C 95 % 1018,7 hPa 0,0 l/m 0 min 0 min 0 W/m 12,6 km/h (3 Bft)
04.10.2014 04:28 12,4 C 11,1 C 95 % 1018,7 hPa 0,0 l/m 0 min 0 min 0 W/m 14,6 km/h (3 Bft)
04.10.2014 04:30 12,4 C 11,1 C 95 % 1018,7 hPa 0,0 l/m 0 min 0 min 0 W/m 10,5 km/h (2 Bft)
04.10.2014 04:32 12,4 C 11,1 C 95 % 1018,7 hPa 0,0 l/m 0 min 0 min 0 W/m 12,6 km/h (3 Bft)
04.10.2014 04:34 12,4 C 11,1 C 95 % 1018,7 hPa 0,0 l/m 0 min 0 min 0 W/m 10,5 km/h (2 Bft)
04.10.2014 04:36 12,4 C 11,1 C 95 % 1018,8 hPa 0,0 l/m 0 min 0 min 0 W/m 12,6 km/h (3 Bft)
04.10.2014 04:38 12,3 C 11,1 C 95 % 1018,8 hPa 0,0 l/m 0 min 0 min 0 W/m 12,6 km/h (3 Bft)
04.10.2014 04:40 12,3 C 11,1 C 95 % 1018,7 hPa 0,0 l/m 0 min 0 min 0 W/m 16,7 km/h (3 Bft)
04.10.2014 04:42 12,3 C 11,1 C 95 % 1018,8 hPa 0,0 l/m 0 min 0 min 0 W/m 10,5 km/h (2 Bft)
04.10.2014 04:44 12,3 C 11,1 C 95 % 1018,7 hPa 0,0 l/m 0 min 0 min 0 W/m 12,6 km/h (3 Bft)
04.10.2014 04:46 12,3 C 11,1 C 95 % 1018,6 hPa 0,0 l/m 0 min 0 min 0 W/m 10,5 km/h (2 Bft)
04.10.2014 04:48 12,3 C 11,1 C 95 % 1018,7 hPa 0,0 l/m 0 min 0 min 0 W/m 10,5 km/h (2 Bft)
04.10.2014 04:50 12,3 C 11,1 C 95 % 1018,6 hPa 0,0 l/m 0 min 0 min 0 W/m 10,5 km/h (2 Bft)
04.10.2014 04:52 12,3 C 11,1 C 95 % 1018,6 hPa 0,0 l/m 0 min 0 min 0 W/m 12,6 km/h (3 Bft)
04.10.2014 04:54 12,3 C 11,1 C 95 % 1018,6 hPa 0,0 l/m 0 min 0 min 0 W/m 14,6 km/h (3 Bft)
04.10.2014 04:56 12,3 C 11,1 C 95 % 1018,6 hPa 0,0 l/m 0 min 0 min 0 W/m 10,5 km/h (2 Bft)
04.10.2014 04:58 12,3 C 11,1 C 95 % 1018,6 hPa 0,0 l/m 0 min 0 min 0 W/m 10,5 km/h (2 Bft)
04.10.2014 05:00 12,2 C 11,1 C 95 % 1018,5 hPa 0,0 l/m 0 min 0 min 0 W/m 14,6 km/h (3 Bft)
04.10.2014 05:02 12,2 C 11,1 C 95 % 1018,5 hPa 0,0 l/m 0 min 0 min 0 W/m 12,6 km/h (3 Bft)
04.10.2014 05:04 12,2 C 11,1 C 95 % 1018,5 hPa 0,0 l/m 0 min 0 min 0 W/m 14,6 km/h (3 Bft)
04.10.2014 05:06 12,2 C 11,1 C 95 % 1018,5 hPa 0,0 l/m 0 min 0 min 0 W/m 12,6 km/h (3 Bft)
04.10.2014 05:08 12,2 C 11,1 C 95 % 1018,4 hPa 0,0 l/m 0 min 0 min 0 W/m 10,5 km/h (2 Bft)
04.10.2014 05:10 12,2 C 11,1 C 95 % 1018,4 hPa 0,0 l/m 0 min 0 min 0 W/m 16,7 km/h (3 Bft)
04.10.2014 05:12 12,2 C 11,1 C 95 % 1018,3 hPa 0,0 l/m 0 min 0 min 0 W/m 14,6 km/h (3 Bft)
04.10.2014 05:14 12,2 C 11,1 C 95 % 1018,3 hPa 0,0 l/m 0 min 0 min 0 W/m 14,6 km/h (3 Bft)
04.10.2014 05:16 12,2 C 11,1 C 95 % 1018,3 hPa 0,0 l/m 0 min 0 min 0 W/m 12,6 km/h (3 Bft)
04.10.2014 05:18 12,2 C 11,1 C 95 % 1018,3 hPa 0,0 l/m 0 min 0 min 0 W/m 12,6 km/h (3 Bft)
04.10.2014 05:20 12,2 C 11,1 C 95 % 1018,3 hPa 0,0 l/m 0 min 0 min 0 W/m 10,5 km/h (2 Bft)
04.10.2014 05:22 12,2 C 11,1 C 95 % 1018,3 hPa 0,0 l/m 0 min 0 min 0 W/m 10,5 km/h (2 Bft)
04.10.2014 05:24 12,2 C 11,1 C 95 % 1018,3 hPa 0,0 l/m 0 min 0 min 0 W/m 10,5 km/h (2 Bft)
04.10.2014 05:26 12,1 C 11,1 C 95 % 1018,3 hPa 0,0 l/m 0 min 0 min 0 W/m 14,6 km/h (3 Bft)
04.10.2014 05:28 12,1 C 11,1 C 95 % 1018,3 hPa 0,0 l/m 0 min 0 min 0 W/m 10,5 km/h (2 Bft)
04.10.2014 05:30 12,1 C 11,1 C 95 % 1018,3 hPa 0,0 l/m 0 min 0 min 0 W/m 12,6 km/h (3 Bft)
04.10.2014 05:32 12,1 C 11,1 C 95 % 1018,3 hPa 0,0 l/m 0 min 0 min 0 W/m 10,5 km/h (2 Bft)
04.10.2014 05:34 12,1 C 10,6 C 95 % 1018,3 hPa 0,0 l/m 0 min 0 min 0 W/m 10,5 km/h (2 Bft)
04.10.2014 05:36 12,1 C 10,6 C 95 % 1018,3 hPa 0,0 l/m 0 min 0 min 0 W/m 12,6 km/h (3 Bft)
04.10.2014 05:38 12,1 C 10,6 C 95 % 1018,2 hPa 0,0 l/m 0 min 0 min 0 W/m 14,6 km/h (3 Bft)
04.10.2014 05:40 12,1 C 10,6 C 95 % 1018,2 hPa 0,0 l/m 0 min 0 min 0 W/m 12,6 km/h (3 Bft)
04.10.2014 05:42 12,1 C 10,6 C 95 % 1018,2 hPa 0,0 l/m 0 min 0 min 0 W/m 12,6 km/h (3 Bft)
04.10.2014 05:44 12,1 C 10,6 C 95 % 1018,1 hPa 0,0 l/m 0 min 0 min 0 W/m 10,5 km/h (2 Bft)
04.10.2014 05:46 12,0 C 10,6 C 95 % 1018,1 hPa 0,0 l/m 0 min 0 min 0 W/m 10,5 km/h (2 Bft)
04.10.2014 05:48 12,0 C 10,6 C 95 % 1018,1 hPa 0,0 l/m 0 min 0 min 0 W/m 8,4 km/h (2 Bft)
04.10.2014 05:50 12,0 C 10,6 C 95 % 1018,0 hPa 0,0 l/m 0 min 0 min 0 W/m 10,5 km/h (2 Bft)
04.10.2014 05:52 12,0 C 10,6 C 95 % 1018,1 hPa 0,0 l/m 0 min 0 min 0 W/m 10,5 km/h (2 Bft)
04.10.2014 05:54 11,9 C 10,6 C 95 % 1017,9 hPa 0,0 l/m 0 min 0 min 0 W/m 10,5 km/h (2 Bft)
04.10.2014 05:56 11,9 C 10,6 C 95 % 1017,9 hPa 0,0 l/m 0 min 0 min 0 W/m 10,5 km/h (2 Bft)
04.10.2014 05:58 11,9 C 10,6 C 95 % 1017,9 hPa 0,0 l/m 0 min 0 min 0 W/m 12,6 km/h (3 Bft)
04.10.2014 06:00 11,9 C 10,6 C 95 % 1017,9 hPa 0,0 l/m 0 min 0 min 0 W/m 10,5 km/h (2 Bft)
04.10.2014 06:02 11,9 C 10,6 C 95 % 1017,9 hPa 0,0 l/m 0 min 0 min 0 W/m 10,5 km/h (2 Bft)
04.10.2014 06:05 11,8 C 10,6 C 95 % 1017,8 hPa 0,0 l/m 0 min 0 min 0 W/m 12,6 km/h (3 Bft)
04.10.2014 06:06 11,8 C 10,6 C 95 % 1017,8 hPa 0,0 l/m 0 min 0 min 0 W/m 12,6 km/h (3 Bft)
04.10.2014 06:08 11,8 C 10,6 C 95 % 1017,9 hPa 0,0 l/m 0 min 0 min 0 W/m 6,3 km/h (2 Bft)
04.10.2014 06:10 11,8 C 10,6 C 95 % 1017,8 hPa 0,0 l/m 0 min 0 min 0 W/m 8,4 km/h (2 Bft)
04.10.2014 06:12 11,8 C 10,6 C 95 % 1017,8 hPa 0,0 l/m 0 min 0 min 0 W/m 8,4 km/h (2 Bft)
04.10.2014 06:14 11,8 C 10,6 C 95 % 1017,8 hPa 0,0 l/m 0 min 0 min 0 W/m 6,3 km/h (2 Bft)
04.10.2014 06:16 11,8 C 10,6 C 95 % 1017,8 hPa 0,0 l/m 0 min 0 min 0 W/m 12,6 km/h (3 Bft)
04.10.2014 06:18 11,7 C 10,6 C 95 % 1017,8 hPa 0,0 l/m 0 min 0 min 0 W/m 10,5 km/h (2 Bft)
04.10.2014 06:20 11,7 C 10,6 C 95 % 1017,7 hPa 0,0 l/m 0 min 0 min 0 W/m 8,4 km/h (2 Bft)
04.10.2014 06:22 11,7 C 10,6 C 95 % 1017,7 hPa 0,0 l/m 0 min 0 min 0 W/m 6,3 km/h (2 Bft)
04.10.2014 06:24 11,7 C 10,6 C 95 % 1017,7 hPa 0,0 l/m 0 min 0 min 0 W/m 12,6 km/h (3 Bft)
04.10.2014 06:26 11,7 C 10,6 C 95 % 1017,7 hPa 0,0 l/m 0 min 0 min 0 W/m 6,3 km/h (2 Bft)
04.10.2014 06:28 11,7 C 10,6 C 95 % 1017,7 hPa 0,0 l/m 0 min 0 min 0 W/m 10,5 km/h (2 Bft)
04.10.2014 06:30 11,7 C 10,0 C 95 % 1017,7 hPa 0,0 l/m 0 min 0 min 0 W/m 10,5 km/h (2 Bft)
04.10.2014 06:32 11,6 C 10,0 C 95 % 1017,6 hPa 0,0 l/m 0 min 0 min 0 W/m 8,4 km/h (2 Bft)
04.10.2014 06:34 11,6 C 10,0 C 95 % 1017,6 hPa 0,0 l/m 0 min 0 min 0 W/m 8,4 km/h (2 Bft)
04.10.2014 06:36 11,6 C 10,0 C 95 % 1017,6 hPa 0,0 l/m 0 min 0 min 0 W/m 8,4 km/h (2 Bft)
04.10.2014 06:38 11,6 C 10,6 C 95 % 1017,6 hPa 0,0 l/m 0 min 0 min 0 W/m 8,4 km/h (2 Bft)
04.10.2014 06:40 11,6 C 10,0 C 95 % 1017,6 hPa 0,0 l/m 0 min 0 min 0 W/m 8,4 km/h (2 Bft)
04.10.2014 06:42 11,6 C 10,0 C 95 % 1017,6 hPa 0,0 l/m 0 min 0 min 0 W/m 8,4 km/h (2 Bft)
04.10.2014 06:44 11,5 C 10,0 C 95 % 1017,6 hPa 0,0 l/m 0 min 0 min 0 W/m 10,5 km/h (2 Bft)
04.10.2014 06:46 11,5 C 10,0 C 95 % 1017,6 hPa 0,0 l/m 0 min 0 min 0 W/m 10,5 km/h (2 Bft)
04.10.2014 06:48 11,5 C 10,0 C 95 % 1017,6 hPa 0,0 l/m 0 min 0 min 0 W/m 8,4 km/h (2 Bft)
04.10.2014 06:50 11,4 C 10,0 C 95 % 1017,6 hPa 0,0 l/m 0 min 0 min 0 W/m 8,4 km/h (2 Bft)
04.10.2014 06:52 11,4 C 10,0 C 95 % 1017,5 hPa 0,0 l/m 0 min 0 min 0 W/m 14,6 km/h (3 Bft)
04.10.2014 06:54 11,4 C 10,0 C 95 % 1017,6 hPa 0,0 l/m 0 min 0 min 0 W/m 10,5 km/h (2 Bft)
04.10.2014 06:56 11,4 C 10,0 C 95 % 1017,6 hPa 0,0 l/m 0 min 0 min 0 W/m 12,6 km/h (3 Bft)
04.10.2014 06:58 11,4 C 10,0 C 95 % 1017,5 hPa 0,0 l/m 0 min 0 min 0 W/m 10,5 km/h (2 Bft)
04.10.2014 07:00 11,4 C 10,0 C 95 % 1017,6 hPa 0,0 l/m 0 min 0 min 0 W/m 10,5 km/h (2 Bft)
04.10.2014 07:02 11,3 C 10,0 C 95 % 1017,5 hPa 0,0 l/m 0 min 0 min 0 W/m 14,6 km/h (3 Bft)
04.10.2014 07:04 11,4 C 10,0 C 95 % 1017,5 hPa 0,0 l/m 0 min 0 min 0 W/m 12,6 km/h (3 Bft)
04.10.2014 07:06 11,3 C 10,0 C 96 % 1017,5 hPa 0,0 l/m 0 min 0 min 0 W/m 14,6 km/h (3 Bft)
04.10.2014 07:08 11,4 C 10,0 C 96 % 1017,5 hPa 0,0 l/m 0 min 0 min 0 W/m 14,6 km/h (3 Bft)
04.10.2014 07:10 11,3 C 10,0 C 96 % 1017,4 hPa 0,0 l/m 0 min 0 min 0 W/m 14,6 km/h (3 Bft)
04.10.2014 07:12 11,3 C 10,0 C 96 % 1017,4 hPa 0,0 l/m 0 min 0 min 0 W/m 8,4 km/h (2 Bft)
04.10.2014 07:14 11,3 C 10,0 C 96 % 1017,5 hPa 0,0 l/m 0 min 0 min 0 W/m 14,6 km/h (3 Bft)
04.10.2014 07:16 11,3 C 10,0 C 96 % 1017,4 hPa 0,0 l/m 0 min 0 min 0 W/m 14,6 km/h (3 Bft)
04.10.2014 07:18 11,3 C 10,0 C 96 % 1017,5 hPa 0,0 l/m 0 min 0 min 0 W/m 12,6 km/h (3 Bft)
04.10.2014 07:20 11,3 C 10,0 C 96 % 1017,5 hPa 0,0 l/m 0 min 0 min 0 W/m 12,6 km/h (3 Bft)
04.10.2014 07:22 11,3 C 10,0 C 96 % 1017,4 hPa 0,0 l/m 0 min 0 min 0 W/m 16,7 km/h (3 Bft)
04.10.2014 07:24 11,3 C 10,0 C 96 % 1017,4 hPa 0,0 l/m 0 min 0 min 0 W/m 16,7 km/h (3 Bft)
04.10.2014 07:26 11,3 C 10,0 C 96 % 1017,4 hPa 0,0 l/m 0 min 0 min 0 W/m 10,5 km/h (2 Bft)
04.10.2014 07:28 11,3 C 10,0 C 96 % 1017,4 hPa 0,0 l/m 0 min 0 min 0 W/m 12,6 km/h (3 Bft)
04.10.2014 07:30 11,3 C 10,0 C 96 % 1017,4 hPa 0,0 l/m 0 min 0 min 0 W/m 14,6 km/h (3 Bft)
04.10.2014 07:32 11,3 C 10,0 C 96 % 1017,3 hPa 0,0 l/m 0 min 0 min 0 W/m 14,6 km/h (3 Bft)
04.10.2014 07:34 11,3 C 10,0 C 96 % 1017,3 hPa 0,0 l/m 0 min 0 min 1 W/m 14,6 km/h (3 Bft)
04.10.2014 07:36 11,3 C 10,0 C 96 % 1017,3 hPa 0,0 l/m 0 min 0 min 5 W/m 14,6 km/h (3 Bft)
04.10.2014 07:38 11,3 C 10,0 C 96 % 1017,3 hPa 0,0 l/m 0 min 0 min 5 W/m 14,6 km/h (3 Bft)
04.10.2014 07:40 11,3 C 10,0 C 96 % 1017,3 hPa 0,0 l/m 0 min 0 min 5 W/m 10,5 km/h (2 Bft)
04.10.2014 07:42 11,3 C 10,0 C 96 % 1017,4 hPa 0,0 l/m 0 min 0 min 7 W/m 10,5 km/h (2 Bft)
04.10.2014 07:44 11,3 C 10,0 C 96 % 1017,4 hPa 0,0 l/m 0 min 0 min 7 W/m 8,4 km/h (2 Bft)
04.10.2014 07:46 11,2 C 10,0 C 96 % 1017,3 hPa 0,0 l/m 0 min 0 min 9 W/m 8,4 km/h (2 Bft)
04.10.2014 07:48 11,2 C 10,0 C 96 % 1017,3 hPa 0,0 l/m 0 min 0 min 10 W/m 8,4 km/h (2 Bft)
04.10.2014 07:50 11,2 C 10,0 C 96 % 1017,3 hPa 0,0 l/m 0 min 0 min 11 W/m 8,4 km/h (2 Bft)
04.10.2014 07:52 11,2 C 10,0 C 96 % 1017,4 hPa 0,0 l/m 0 min 0 min 12 W/m 10,5 km/h (2 Bft)
04.10.2014 07:54 11,2 C 10,0 C 96 % 1017,4 hPa 0,0 l/m 2 min 0 min 14 W/m 8,4 km/h (2 Bft)
04.10.2014 07:56 11,2 C 10,0 C 96 % 1017,4 hPa 0,0 l/m 2 min 0 min 15 W/m 8,4 km/h (2 Bft)
04.10.2014 07:58 11,2 C 10,0 C 96 % 1017,4 hPa 0,0 l/m 2 min 0 min 17 W/m 8,4 km/h (2 Bft)
04.10.2014 08:00 11,2 C 10,0 C 96 % 1017,4 hPa 0,0 l/m 2 min 0 min 19 W/m 10,5 km/h (2 Bft)
04.10.2014 08:02 11,2 C 10,0 C 96 % 1017,3 hPa 0,0 l/m 2 min 0 min 22 W/m 8,4 km/h (2 Bft)
04.10.2014 08:04 11,2 C 10,0 C 96 % 1017,3 hPa 0,0 l/m 2 min 0 min 25 W/m 10,5 km/h (2 Bft)
04.10.2014 08:06 11,1 C 10,0 C 96 % 1017,4 hPa 0,0 l/m 2 min 0 min 28 W/m 8,4 km/h (2 Bft)
04.10.2014 08:08 11,1 C 10,0 C 96 % 1017,3 hPa 0,0 l/m 2 min 0 min 31 W/m 8,4 km/h (2 Bft)
04.10.2014 08:10 11,1 C 10,0 C 96 % 1017,3 hPa 0,0 l/m 2 min 0 min 35 W/m 4,2 km/h (1 Bft)
04.10.2014 08:12 11,1 C 10,0 C 96 % 1017,4 hPa 0,0 l/m 2 min 0 min 39 W/m 4,2 km/h (1 Bft)
04.10.2014 08:14 11,1 C 10,0 C 96 % 1017,4 hPa 0,0 l/m 2 min 0 min 44 W/m 6,3 km/h (2 Bft)
04.10.2014 08:16 11,1 C 10,0 C 96 % 1017,3 hPa 0,0 l/m 2 min 0 min 47 W/m 4,2 km/h (1 Bft)
04.10.2014 08:18 11,1 C 10,0 C 96 % 1017,3 hPa 0,0 l/m 2 min 0 min 52 W/m 10,5 km/h (2 Bft)
04.10.2014 08:20 11,1 C 10,0 C 96 % 1017,4 hPa 0,0 l/m 2 min 0 min 56 W/m 8,4 km/h (2 Bft)
04.10.2014 08:22 11,0 C 10,0 C 96 % 1017,4 hPa 0,0 l/m 2 min 0 min 60 W/m 8,4 km/h (2 Bft)
04.10.2014 08:24 11,0 C 10,0 C 96 % 1017,4 hPa 0,0 l/m 2 min 0 min 64 W/m 6,3 km/h (2 Bft)
04.10.2014 08:26 11,0 C 10,0 C 96 % 1017,4 hPa 0,0 l/m 2 min 0 min 68 W/m 6,3 km/h (2 Bft)
04.10.2014 08:28 11,0 C 10,0 C 96 % 1017,5 hPa 0,0 l/m 2 min 0 min 73 W/m 8,4 km/h (2 Bft)
04.10.2014 08:30 11,0 C 10,0 C 96 % 1017,4 hPa 0,0 l/m 2 min 0 min 78 W/m 8,4 km/h (2 Bft)
04.10.2014 08:32 11,0 C 10,0 C 96 % 1017,4 hPa 0,0 l/m 2 min 0 min 82 W/m 12,6 km/h (3 Bft)
04.10.2014 08:34 11,0 C 10,0 C 96 % 1017,4 hPa 0,0 l/m 2 min 0 min 88 W/m 10,5 km/h (2 Bft)
04.10.2014 08:36 11,0 C 10,0 C 96 % 1017,5 hPa 0,0 l/m 2 min 0 min 92 W/m 10,5 km/h (2 Bft)
04.10.2014 08:38 11,0 C 10,6 C 96 % 1017,5 hPa 0,0 l/m 2 min 0 min 96 W/m 10,5 km/h (2 Bft)
04.10.2014 08:40 11,1 C 10,6 C 96 % 1017,5 hPa 0,0 l/m 2 min 0 min 100 W/m 10,5 km/h (2 Bft)
04.10.2014 08:42 11,1 C 10,6 C 96 % 1017,5 hPa 0,0 l/m 2 min 0 min 105 W/m 16,7 km/h (3 Bft)
04.10.2014 08:44 11,1 C 10,6 C 96 % 1017,4 hPa 0,0 l/m 2 min 0 min 111 W/m 16,7 km/h (3 Bft)
04.10.2014 08:46 11,2 C 10,6 C 96 % 1017,4 hPa 0,0 l/m 2 min 0 min 114 W/m 18,8 km/h (3 Bft)
04.10.2014 08:48 11,2 C 10,6 C 96 % 1017,4 hPa 0,0 l/m 2 min 0 min 119 W/m 16,7 km/h (3 Bft)
04.10.2014 08:50 11,2 C 10,6 C 96 % 1017,4 hPa 0,0 l/m 2 min 0 min 123 W/m 18,8 km/h (3 Bft)
04.10.2014 08:52 11,3 C 11,1 C 96 % 1017,4 hPa 0,0 l/m 2 min 0 min 128 W/m 18,8 km/h (3 Bft)
04.10.2014 08:54 11,3 C 11,1 C 96 % 1017,4 hPa 0,0 l/m 2 min 0 min 133 W/m 12,6 km/h (3 Bft)
04.10.2014 08:56 11,4 C 11,1 C 96 % 1017,4 hPa 0,0 l/m 2 min 0 min 137 W/m 18,8 km/h (3 Bft)
04.10.2014 08:58 11,4 C 11,1 C 97 % 1017,3 hPa 0,0 l/m 2 min 0 min 142 W/m 16,7 km/h (3 Bft)
04.10.2014 09:00 11,5 C 11,1 C 97 % 1017,3 hPa 0,0 l/m 2 min 0 min 149 W/m 16,7 km/h (3 Bft)
04.10.2014 09:02 11,5 C 11,1 C 97 % 1017,3 hPa 0,0 l/m 2 min 0 min 154 W/m 12,6 km/h (3 Bft)
04.10.2014 09:04 11,6 C 11,1 C 97 % 1017,3 hPa 0,0 l/m 2 min 0 min 160 W/m 25,1 km/h (4 Bft)
04.10.2014 09:06 11,6 C 11,1 C 97 % 1017,3 hPa 0,0 l/m 2 min 0 min 164 W/m 14,6 km/h (3 Bft)
04.10.2014 09:08 11,7 C 11,1 C 97 % 1017,3 hPa 0,0 l/m 2 min 0 min 172 W/m 16,7 km/h (3 Bft)
04.10.2014 09:10 11,7 C 11,7 C 97 % 1017,3 hPa 0,0 l/m 2 min 0 min 178 W/m 20,9 km/h (4 Bft)
04.10.2014 09:12 11,8 C 11,7 C 97 % 1017,3 hPa 0,0 l/m 2 min 0 min 184 W/m 16,7 km/h (3 Bft)
04.10.2014 09:14 11,8 C 11,7 C 97 % 1017,3 hPa 0,0 l/m 2 min 0 min 190 W/m 18,8 km/h (3 Bft)
04.10.2014 09:16 11,8 C 11,7 C 97 % 1017,3 hPa 0,0 l/m 2 min 0 min 197 W/m 14,6 km/h (3 Bft)
04.10.2014 09:18 11,9 C 11,7 C 97 % 1017,3 hPa 0,0 l/m 2 min 0 min 202 W/m 18,8 km/h (3 Bft)
04.10.2014 09:20 11,9 C 11,7 C 97 % 1017,3 hPa 0,0 l/m 2 min 0 min 208 W/m 20,9 km/h (4 Bft)
04.10.2014 09:22 12,0 C 11,7 C 97 % 1017,3 hPa 0,0 l/m 2 min 0 min 214 W/m 14,6 km/h (3 Bft)
04.10.2014 09:24 12,1 C 11,7 C 97 % 1017,3 hPa 0,0 l/m 2 min 0 min 221 W/m 10,5 km/h (2 Bft)
04.10.2014 09:26 12,1 C 11,7 C 97 % 1017,3 hPa 0,0 l/m 2 min 0 min 227 W/m 16,7 km/h (3 Bft)
04.10.2014 09:28 12,2 C 11,7 C 97 % 1017,3 hPa 0,0 l/m 2 min 0 min 233 W/m 18,8 km/h (3 Bft)
04.10.2014 09:30 12,2 C 12,2 C 97 % 1017,3 hPa 0,0 l/m 2 min 0 min 238 W/m 20,9 km/h (4 Bft)
04.10.2014 09:32 12,3 C 12,2 C 97 % 1017,3 hPa 0,0 l/m 2 min 0 min 243 W/m 16,7 km/h (3 Bft)
04.10.2014 09:34 12,3 C 12,2 C 97 % 1017,3 hPa 0,0 l/m 2 min 0 min 248 W/m 16,7 km/h (3 Bft)
04.10.2014 09:36 12,4 C 12,2 C 97 % 1017,3 hPa 0,0 l/m 2 min 0 min 254 W/m 10,5 km/h (2 Bft)
04.10.2014 09:38 12,4 C 12,2 C 97 % 1017,3 hPa 0,0 l/m 2 min 0 min 258 W/m 16,7 km/h (3 Bft)
04.10.2014 09:40 12,5 C 12,2 C 97 % 1017,3 hPa 0,0 l/m 2 min 0 min 264 W/m 23,0 km/h (4 Bft)
04.10.2014 09:42 12,6 C 12,2 C 97 % 1017,3 hPa 0,0 l/m 2 min 0 min 270 W/m 12,6 km/h (3 Bft)
04.10.2014 09:44 12,7 C 12,2 C 97 % 1017,4 hPa 0,0 l/m 2 min 0 min 273 W/m 18,8 km/h (3 Bft)
04.10.2014 09:46 12,8 C 12,2 C 97 % 1017,3 hPa 0,0 l/m 2 min 0 min 278 W/m 16,7 km/h (3 Bft)
04.10.2014 09:48 12,9 C 12,2 C 97 % 1017,3 hPa 0,0 l/m 2 min 0 min 282 W/m 16,7 km/h (3 Bft)
04.10.2014 09:50 13,0 C 12,8 C 97 % 1017,3 hPa 0,0 l/m 2 min 0 min 287 W/m 27,2 km/h (4 Bft)
04.10.2014 09:52 13,1 C 12,8 C 97 % 1017,3 hPa 0,0 l/m 2 min 0 min 292 W/m 16,7 km/h (3 Bft)
04.10.2014 09:54 13,2 C 12,8 C 97 % 1017,3 hPa 0,0 l/m 2 min 0 min 297 W/m 14,6 km/h (3 Bft)
04.10.2014 09:56 13,3 C 12,8 C 97 % 1017,3 hPa 0,0 l/m 2 min 0 min 302 W/m 14,6 km/h (3 Bft)
04.10.2014 09:58 13,4 C 12,8 C 97 % 1017,3 hPa 0,0 l/m 2 min 0 min 306 W/m 18,8 km/h (3 Bft)
04.10.2014 10:00 13,4 C 12,8 C 97 % 1017,3 hPa 0,0 l/m 2 min 0 min 311 W/m 23,0 km/h (4 Bft)
04.10.2014 10:02 13,6 C 12,8 C 97 % 1017,3 hPa 0,0 l/m 2 min 0 min 316 W/m 29,3 km/h (5 Bft)
04.10.2014 10:04 13,7 C 12,8 C 97 % 1017,3 hPa 0,0 l/m 2 min 0 min 318 W/m 20,9 km/h (4 Bft)
04.10.2014 10:06 13,8 C 12,8 C 96 % 1017,3 hPa 0,0 l/m 2 min 0 min 323 W/m 20,9 km/h (4 Bft)
04.10.2014 10:08 13,9 C 12,8 C 96 % 1017,3 hPa 0,0 l/m 2 min 0 min 328 W/m 18,8 km/h (3 Bft)
04.10.2014 10:10 14,1 C 13,3 C 96 % 1017,2 hPa 0,0 l/m 2 min 0 min 336 W/m 23,0 km/h (4 Bft)
04.10.2014 10:12 14,2 C 13,3 C 96 % 1017,2 hPa 0,0 l/m 2 min 0 min 341 W/m 23,0 km/h (4 Bft)
04.10.2014 10:14 14,2 C 13,3 C 95 % 1017,2 hPa 0,0 l/m 2 min 0 min 346 W/m 20,9 km/h (4 Bft)
04.10.2014 10:16 14,3 C 13,3 C 94 % 1017,2 hPa 0,0 l/m 2 min 0 min 350 W/m 16,7 km/h (3 Bft)
04.10.2014 10:18 14,4 C 13,3 C 94 % 1017,0 hPa 0,0 l/m 2 min 0 min 352 W/m 16,7 km/h (3 Bft)
04.10.2014 10:20 14,6 C 13,3 C 93 % 1017,1 hPa 0,0 l/m 2 min 0 min 360 W/m 18,8 km/h (3 Bft)
04.10.2014 10:22 14,7 C 13,3 C 93 % 1017,0 hPa 0,0 l/m 2 min 0 min 365 W/m 25,1 km/h (4 Bft)
04.10.2014 10:24 14,8 C 13,9 C 93 % 1016,9 hPa 0,0 l/m 2 min 0 min 370 W/m 25,1 km/h (4 Bft)
04.10.2014 10:26 14,9 C 13,9 C 92 % 1017,0 hPa 0,0 l/m 2 min 0 min 373 W/m 25,1 km/h (4 Bft)
04.10.2014 10:28 15,1 C 13,9 C 91 % 1017,0 hPa 0,0 l/m 2 min 0 min 378 W/m 18,8 km/h (3 Bft)
04.10.2014 10:30 15,2 C 13,9 C 91 % 1017,1 hPa 0,0 l/m 2 min 0 min 383 W/m 27,2 km/h (4 Bft)
04.10.2014 10:32 15,3 C 13,9 C 90 % 1017,1 hPa 0,0 l/m 2 min 0 min 389 W/m 23,0 km/h (4 Bft)
04.10.2014 10:34 15,4 C 13,9 C 89 % 1017,0 hPa 0,0 l/m 2 min 0 min 393 W/m 16,7 km/h (3 Bft)
04.10.2014 10:36 15,5 C 13,9 C 89 % 1017,1 hPa 0,0 l/m 2 min 0 min 397 W/m 18,8 km/h (3 Bft)
04.10.2014 10:38 15,6 C 14,4 C 88 % 1017,1 hPa 0,0 l/m 2 min 0 min 402 W/m 25,1 km/h (4 Bft)
04.10.2014 10:40 15,7 C 14,4 C 88 % 1017,1 hPa 0,0 l/m 2 min 0 min 409 W/m 23,0 km/h (4 Bft)
04.10.2014 10:42 15,8 C 14,4 C 87 % 1017,0 hPa 0,0 l/m 2 min 0 min 413 W/m 25,1 km/h (4 Bft)
04.10.2014 10:44 15,9 C 14,4 C 87 % 1017,0 hPa 0,0 l/m 2 min 0 min 416 W/m 25,1 km/h (4 Bft)
04.10.2014 10:46 16,0 C 14,4 C 86 % 1016,9 hPa 0,0 l/m 2 min 0 min 416 W/m 20,9 km/h (4 Bft)
04.10.2014 10:48 16,1 C 14,4 C 86 % 1017,0 hPa 0,0 l/m 2 min 0 min 422 W/m 18,8 km/h (3 Bft)
04.10.2014 10:50 16,2 C 14,4 C 86 % 1017,0 hPa 0,0 l/m 2 min 0 min 426 W/m 20,9 km/h (4 Bft)
04.10.2014 10:52 16,3 C 15,0 C 85 % 1017,0 hPa 0,0 l/m 2 min 0 min 429 W/m 23,0 km/h (4 Bft)
04.10.2014 10:54 16,4 C 15,0 C 85 % 1017,0 hPa 0,0 l/m 2 min 0 min 432 W/m 29,3 km/h (5 Bft)
04.10.2014 10:56 16,5 C 15,0 C 84 % 1016,9 hPa 0,0 l/m 2 min 0 min 434 W/m 20,9 km/h (4 Bft)
04.10.2014 10:58 16,7 C 15,0 C 84 % 1016,9 hPa 0,0 l/m 2 min 0 min 438 W/m 29,3 km/h (5 Bft)
04.10.2014 11:00 16,7 C 15,0 C 83 % 1016,9 hPa 0,0 l/m 2 min 0 min 442 W/m 18,8 km/h (3 Bft)
04.10.2014 11:02 16,8 C 15,0 C 83 % 1016,8 hPa 0,0 l/m 2 min 0 min 439 W/m 18,8 km/h (3 Bft)
04.10.2014 11:04 16,9 C 15,0 C 83 % 1016,9 hPa 0,0 l/m 2 min 0 min 443 W/m 25,1 km/h (4 Bft)
04.10.2014 11:06 17,0 C 15,0 C 82 % 1016,9 hPa 0,0 l/m 2 min 0 min 448 W/m 18,8 km/h (3 Bft)
04.10.2014 11:08 17,1 C 15,6 C 82 % 1016,9 hPa 0,0 l/m 2 min 0 min 454 W/m 12,6 km/h (3 Bft)
04.10.2014 11:10 17,2 C 15,6 C 82 % 1016,9 hPa 0,0 l/m 2 min 0 min 458 W/m 20,9 km/h (4 Bft)
04.10.2014 11:12 17,3 C 15,6 C 82 % 1016,8 hPa 0,0 l/m 2 min 0 min 465 W/m 25,1 km/h (4 Bft)
04.10.2014 11:14 17,3 C 15,6 C 81 % 1016,8 hPa 0,0 l/m 2 min 0 min 466 W/m 20,9 km/h (4 Bft)
04.10.2014 11:16 17,4 C 15,6 C 81 % 1016,8 hPa 0,0 l/m 2 min 0 min 470 W/m 18,8 km/h (3 Bft)
04.10.2014 11:18 17,5 C 15,6 C 81 % 1016,8 hPa 0,0 l/m 2 min 0 min 472 W/m 20,9 km/h (4 Bft)
04.10.2014 11:20 17,6 C 15,6 C 81 % 1016,7 hPa 0,0 l/m 2 min 0 min 477 W/m 23,0 km/h (4 Bft)
04.10.2014 11:22 17,7 C 15,6 C 81 % 1016,7 hPa 0,0 l/m 2 min 0 min 474 W/m 23,0 km/h (4 Bft)
04.10.2014 11:24 17,8 C 15,6 C 80 % 1016,7 hPa 0,0 l/m 2 min 0 min 481 W/m 25,1 km/h (4 Bft)
04.10.2014 11:26 17,8 C 15,6 C 80 % 1016,7 hPa 0,0 l/m 2 min 0 min 484 W/m 23,0 km/h (4 Bft)
04.10.2014 11:28 17,9 C 16,1 C 80 % 1016,6 hPa 0,0 l/m 2 min 0 min 489 W/m 25,1 km/h (4 Bft)
04.10.2014 11:30 18,0 C 16,1 C 80 % 1016,6 hPa 0,0 l/m 2 min 0 min 489 W/m 27,2 km/h (4 Bft)
04.10.2014 11:32 18,1 C 16,1 C 79 % 1016,6 hPa 0,0 l/m 2 min 0 min 492 W/m 29,3 km/h (5 Bft)
04.10.2014 11:34 18,1 C 16,1 C 79 % 1016,6 hPa 0,0 l/m 2 min 0 min 495 W/m 20,9 km/h (4 Bft)
04.10.2014 11:36 18,2 C 16,1 C 79 % 1016,6 hPa 0,0 l/m 2 min 0 min 498 W/m 25,1 km/h (4 Bft)
04.10.2014 11:38 18,3 C 16,1 C 79 % 1016,6 hPa 0,0 l/m 2 min 0 min 499 W/m 18,8 km/h (3 Bft)
04.10.2014 11:40 18,3 C 16,1 C 79 % 1016,6 hPa 0,0 l/m 2 min 0 min 498 W/m 18,8 km/h (3 Bft)
04.10.2014 11:42 18,4 C 16,1 C 78 % 1016,6 hPa 0,0 l/m 2 min 0 min 501 W/m 29,3 km/h (5 Bft)
04.10.2014 11:44 18,4 C 16,1 C 77 % 1016,5 hPa 0,0 l/m 2 min 0 min 501 W/m 33,5 km/h (5 Bft)
04.10.2014 11:46 18,5 C 16,1 C 77 % 1016,5 hPa 0,0 l/m 2 min 0 min 504 W/m 23,0 km/h (4 Bft)
04.10.2014 11:48 18,6 C 16,7 C 77 % 1016,5 hPa 0,0 l/m 2 min 0 min 507 W/m 18,8 km/h (3 Bft)
04.10.2014 11:50 18,6 C 16,7 C 77 % 1016,4 hPa 0,0 l/m 2 min 0 min 510 W/m 18,8 km/h (3 Bft)
04.10.2014 11:52 18,7 C 16,7 C 77 % 1016,4 hPa 0,0 l/m 2 min 0 min 513 W/m 23,0 km/h (4 Bft)
04.10.2014 11:54 18,8 C 16,7 C 77 % 1016,4 hPa 0,0 l/m 2 min 0 min 519 W/m 20,9 km/h (4 Bft)
04.10.2014 11:56 18,8 C 16,7 C 76 % 1016,5 hPa 0,0 l/m 2 min 0 min 523 W/m 25,1 km/h (4 Bft)
04.10.2014 11:58 18,9 C 16,7 C 76 % 1016,4 hPa 0,0 l/m 2 min 0 min 529 W/m 20,9 km/h (4 Bft)
04.10.2014 12:00 18,9 C 16,7 C 76 % 1016,4 hPa 0,0 l/m 2 min 0 min 531 W/m 23,0 km/h (4 Bft)
04.10.2014 12:02 19,1 C 16,7 C 75 % 1016,4 hPa 0,0 l/m 2 min 0 min 534 W/m 31,4 km/h (5 Bft)
04.10.2014 12:05 19,1 C 16,7 C 75 % 1016,4 hPa 0,0 l/m 2 min 0 min 538 W/m 27,2 km/h (4 Bft)
04.10.2014 12:06 19,1 C 16,7 C 74 % 1016,4 hPa 0,0 l/m 1 min 0 min 538 W/m 27,2 km/h (4 Bft)
04.10.2014 12:08 19,2 C 16,7 C 74 % 1016,3 hPa 0,0 l/m 2 min 0 min 542 W/m 29,3 km/h (5 Bft)
04.10.2014 12:10 19,2 C 17,2 C 74 % 1016,3 hPa 0,0 l/m 2 min 0 min 542 W/m 33,5 km/h (5 Bft)
04.10.2014 12:12 19,2 C 17,2 C 74 % 1016,3 hPa 0,0 l/m 2 min 0 min 544 W/m 31,4 km/h (5 Bft)
04.10.2014 12:14 19,2 C 17,2 C 73 % 1016,3 hPa 0,0 l/m 2 min 0 min 544 W/m 27,2 km/h (4 Bft)
04.10.2014 12:16 19,3 C 17,2 C 74 % 1016,3 hPa 0,0 l/m 2 min 0 min 544 W/m 20,9 km/h (4 Bft)
04.10.2014 12:18 19,3 C 17,2 C 74 % 1016,3 hPa 0,0 l/m 2 min 0 min 546 W/m 25,1 km/h (4 Bft)
04.10.2014 12:20 19,4 C 17,2 C 73 % 1016,3 hPa 0,0 l/m 2 min 0 min 543 W/m 27,2 km/h (4 Bft)
04.10.2014 12:22 19,4 C 17,2 C 74 % 1016,3 hPa 0,0 l/m 2 min 0 min 546 W/m 25,1 km/h (4 Bft)
04.10.2014 12:24 19,5 C 17,2 C 73 % 1016,2 hPa 0,0 l/m 2 min 0 min 547 W/m 27,2 km/h (4 Bft)
04.10.2014 12:26 19,6 C 17,2 C 73 % 1016,2 hPa 0,0 l/m 2 min 0 min 550 W/m 20,9 km/h (4 Bft)
04.10.2014 12:28 19,6 C 17,2 C 74 % 1016,2 hPa 0,0 l/m 2 min 0 min 549 W/m 23,0 km/h (4 Bft)
04.10.2014 12:30 19,7 C 17,8 C 74 % 1016,2 hPa 0,0 l/m 2 min 0 min 553 W/m 31,4 km/h (5 Bft)
04.10.2014 12:32 19,7 C 17,2 C 73 % 1016,2 hPa 0,0 l/m 2 min 0 min 556 W/m 29,3 km/h (5 Bft)
04.10.2014 12:34 19,8 C 17,2 C 72 % 1016,2 hPa 0,0 l/m 2 min 0 min 556 W/m 25,1 km/h (4 Bft)
04.10.2014 12:36 19,8 C 17,8 C 72 % 1016,2 hPa 0,0 l/m 2 min 0 min 555 W/m 20,9 km/h (4 Bft)
04.10.2014 12:38 19,9 C 17,8 C 73 % 1016,1 hPa 0,0 l/m 2 min 0 min 554 W/m 18,8 km/h (3 Bft)
04.10.2014 12:40 19,9 C 17,8 C 72 % 1016,1 hPa 0,0 l/m 2 min 0 min 556 W/m 18,8 km/h (3 Bft)
04.10.2014 12:42 20,0 C 17,8 C 72 % 1016,1 hPa 0,0 l/m 2 min 0 min 560 W/m 14,6 km/h (3 Bft)
04.10.2014 12:44 20,1 C 17,8 C 72 % 1016,1 hPa 0,0 l/m 2 min 0 min 559 W/m 18,8 km/h (3 Bft)
04.10.2014 12:46 20,1 C 17,8 C 71 % 1016,1 hPa 0,0 l/m 2 min 0 min 561 W/m 31,4 km/h (5 Bft)
04.10.2014 12:48 20,2 C 17,8 C 71 % 1016,0 hPa 0,0 l/m 2 min 0 min 561 W/m 23,0 km/h (4 Bft)
04.10.2014 12:50 20,2 C 17,8 C 71 % 1016,0 hPa 0,0 l/m 2 min 0 min 562 W/m 27,2 km/h (4 Bft)
04.10.2014 12:52 20,3 C 17,8 C 70 % 1016,0 hPa 0,0 l/m 2 min 0 min 564 W/m 31,4 km/h (5 Bft)
04.10.2014 12:54 20,3 C 17,8 C 70 % 1015,9 hPa 0,0 l/m 2 min 0 min 566 W/m 27,2 km/h (4 Bft)
04.10.2014 12:56 20,3 C 17,8 C 70 % 1015,8 hPa 0,0 l/m 2 min 0 min 566 W/m 23,0 km/h (4 Bft)
04.10.2014 12:58 20,4 C 17,8 C 70 % 1015,8 hPa 0,0 l/m 2 min 0 min 568 W/m 20,9 km/h (4 Bft)
04.10.2014 13:00 20,4 C 17,8 C 70 % 1015,8 hPa 0,0 l/m 2 min 0 min 569 W/m 39,7 km/h (6 Bft)
04.10.2014 13:02 20,5 C 17,8 C 70 % 1015,8 hPa 0,0 l/m 2 min 0 min 570 W/m 18,8 km/h (3 Bft)
04.10.2014 13:04 20,6 C 18,3 C 70 % 1015,8 hPa 0,0 l/m 2 min 0 min 572 W/m 16,7 km/h (3 Bft)
04.10.2014 13:06 20,6 C 18,3 C 70 % 1015,7 hPa 0,0 l/m 2 min 0 min 572 W/m 27,2 km/h (4 Bft)
04.10.2014 13:08 20,7 C 18,3 C 69 % 1015,7 hPa 0,0 l/m 2 min 0 min 570 W/m 25,1 km/h (4 Bft)
04.10.2014 13:10 20,7 C 18,3 C 69 % 1015,7 hPa 0,0 l/m 2 min 0 min 571 W/m 27,2 km/h (4 Bft)
04.10.2014 13:12 20,8 C 18,3 C 69 % 1015,7 hPa 0,0 l/m 2 min 0 min 573 W/m 16,7 km/h (3 Bft)
04.10.2014 13:14 20,8 C 18,3 C 70 % 1015,6 hPa 0,0 l/m 2 min 0 min 572 W/m 18,8 km/h (3 Bft)
04.10.2014 13:16 20,9 C 18,3 C 70 % 1015,6 hPa 0,0 l/m 2 min 0 min 570 W/m 25,1 km/h (4 Bft)
04.10.2014 13:18 21,0 C 18,3 C 69 % 1015,6 hPa 0,0 l/m 2 min 0 min 571 W/m 20,9 km/h (4 Bft)
04.10.2014 13:20 21,0 C 18,3 C 69 % 1015,5 hPa 0,0 l/m 2 min 0 min 573 W/m 20,9 km/h (4 Bft)
04.10.2014 13:22 21,0 C 18,3 C 68 % 1015,5 hPa 0,0 l/m 2 min 0 min 576 W/m 25,1 km/h (4 Bft)
04.10.2014 13:24 21,1 C 18,9 C 68 % 1015,5 hPa 0,0 l/m 2 min 0 min 571 W/m 25,1 km/h (4 Bft)
04.10.2014 13:26 21,1 C 18,9 C 68 % 1015,5 hPa 0,0 l/m 2 min 0 min 570 W/m 25,1 km/h (4 Bft)
04.10.2014 13:28 21,2 C 18,9 C 67 % 1015,4 hPa 0,0 l/m 2 min 0 min 572 W/m 27,2 km/h (4 Bft)
04.10.2014 13:30 21,2 C 18,9 C 68 % 1015,4 hPa 0,0 l/m 2 min 0 min 570 W/m 20,9 km/h (4 Bft)
04.10.2014 13:32 21,2 C 18,9 C 68 % 1015,3 hPa 0,0 l/m 2 min 0 min 571 W/m 20,9 km/h (4 Bft)
04.10.2014 13:34 21,3 C 18,9 C 67 % 1015,2 hPa 0,0 l/m 2 min 0 min 573 W/m 29,3 km/h (5 Bft)
04.10.2014 13:36 21,3 C 18,9 C 67 % 1015,1 hPa 0,0 l/m 2 min 0 min 570 W/m 20,9 km/h (4 Bft)
04.10.2014 13:38 21,3 C 18,9 C 67 % 1015,2 hPa 0,0 l/m 2 min 0 min 570 W/m 20,9 km/h (4 Bft)
04.10.2014 13:40 21,4 C 18,9 C 67 % 1015,1 hPa 0,0 l/m 2 min 0 min 567 W/m 25,1 km/h (4 Bft)
04.10.2014 13:42 21,4 C 18,9 C 67 % 1015,2 hPa 0,0 l/m 2 min 0 min 568 W/m 23,0 km/h (4 Bft)
04.10.2014 13:44 21,5 C 18,9 C 67 % 1015,1 hPa 0,0 l/m 2 min 0 min 568 W/m 23,0 km/h (4 Bft)
04.10.2014 13:46 21,5 C 18,9 C 66 % 1015,1 hPa 0,0 l/m 2 min 0 min 565 W/m 27,2 km/h (4 Bft)
04.10.2014 13:48 21,6 C 18,9 C 66 % 1015,1 hPa 0,0 l/m 2 min 0 min 565 W/m 20,9 km/h (4 Bft)
04.10.2014 13:50 21,6 C 18,9 C 67 % 1015,0 hPa 0,0 l/m 2 min 0 min 565 W/m 23,0 km/h (4 Bft)
04.10.2014 13:52 21,7 C 18,9 C 66 % 1015,0 hPa 0,0 l/m 2 min 0 min 563 W/m 16,7 km/h (3 Bft)
04.10.2014 13:54 21,7 C 18,9 C 65 % 1015,0 hPa 0,0 l/m 2 min 0 min 561 W/m 27,2 km/h (4 Bft)
04.10.2014 13:56 21,8 C 18,9 C 65 % 1015,0 hPa 0,0 l/m 2 min 0 min 560 W/m 27,2 km/h (4 Bft)
04.10.2014 13:58 21,8 C 18,9 C 65 % 1015,0 hPa 0,0 l/m 2 min 0 min 552 W/m 25,1 km/h (4 Bft)
04.10.2014 14:00 21,8 C 18,9 C 65 % 1014,9 hPa 0,0 l/m 2 min 0 min 548 W/m 25,1 km/h (4 Bft)
04.10.2014 14:02 21,8 C 18,9 C 64 % 1014,9 hPa 0,0 l/m 2 min 0 min 550 W/m 27,2 km/h (4 Bft)
04.10.2014 14:04 21,8 C 18,9 C 63 % 1014,8 hPa 0,0 l/m 2 min 0 min 551 W/m 27,2 km/h (4 Bft)
04.10.2014 14:06 21,8 C 18,9 C 64 % 1014,8 hPa 0,0 l/m 2 min 0 min 541 W/m 27,2 km/h (4 Bft)
04.10.2014 14:08 21,8 C 18,9 C 63 % 1014,8 hPa 0,0 l/m 2 min 0 min 539 W/m 33,5 km/h (5 Bft)
04.10.2014 14:10 21,9 C 18,9 C 63 % 1014,8 hPa 0,0 l/m 2 min 0 min 549 W/m 23,0 km/h (4 Bft)
04.10.2014 14:12 21,9 C 18,9 C 63 % 1014,8 hPa 0,0 l/m 2 min 0 min 547 W/m 29,3 km/h (5 Bft)
04.10.2014 14:14 21,9 C 18,9 C 63 % 1014,7 hPa 0,0 l/m 2 min 0 min 548 W/m 25,1 km/h (4 Bft)
04.10.2014 14:16 21,9 C 18,9 C 62 % 1014,7 hPa 0,0 l/m 2 min 0 min 548 W/m 27,2 km/h (4 Bft)
04.10.2014 14:18 21,9 C 19,4 C 63 % 1014,6 hPa 0,0 l/m 2 min 0 min 546 W/m 25,1 km/h (4 Bft)
04.10.2014 14:20 21,9 C 19,4 C 63 % 1014,6 hPa 0,0 l/m 2 min 0 min 539 W/m 29,3 km/h (5 Bft)
04.10.2014 14:22 22,0 C 19,4 C 63 % 1014,6 hPa 0,0 l/m 2 min 0 min 538 W/m 18,8 km/h (3 Bft)
04.10.2014 14:24 22,1 C 19,4 C 63 % 1014,6 hPa 0,0 l/m 2 min 0 min 539 W/m 27,2 km/h (4 Bft)
04.10.2014 14:26 22,1 C 19,4 C 62 % 1014,5 hPa 0,0 l/m 2 min 0 min 535 W/m 27,2 km/h (4 Bft)
04.10.2014 14:28 22,1 C 19,4 C 62 % 1014,5 hPa 0,0 l/m 2 min 0 min 533 W/m 33,5 km/h (5 Bft)
04.10.2014 14:30 22,1 C 19,4 C 63 % 1014,5 hPa 0,0 l/m 2 min 0 min 534 W/m 18,8 km/h (3 Bft)
04.10.2014 14:32 22,2 C 19,4 C 62 % 1014,4 hPa 0,0 l/m 2 min 0 min 527 W/m 27,2 km/h (4 Bft)
04.10.2014 14:34 22,2 C 19,4 C 62 % 1014,4 hPa 0,0 l/m 2 min 0 min 516 W/m 31,4 km/h (5 Bft)
04.10.2014 14:36 22,2 C 19,4 C 62 % 1014,4 hPa 0,0 l/m 2 min 0 min 517 W/m 25,1 km/h (4 Bft)
04.10.2014 14:38 22,2 C 19,4 C 61 % 1014,4 hPa 0,0 l/m 2 min 0 min 522 W/m 31,4 km/h (5 Bft)
04.10.2014 14:40 22,2 C 19,4 C 61 % 1014,4 hPa 0,0 l/m 2 min 0 min 523 W/m 23,0 km/h (4 Bft)
04.10.2014 14:42 22,2 C 19,4 C 62 % 1014,4 hPa 0,0 l/m 2 min 0 min 516 W/m 27,2 km/h (4 Bft)
04.10.2014 14:44 22,2 C 19,4 C 61 % 1014,4 hPa 0,0 l/m 2 min 0 min 502 W/m 27,2 km/h (4 Bft)
04.10.2014 14:46 22,2 C 19,4 C 61 % 1014,4 hPa 0,0 l/m 2 min 0 min 515 W/m 18,8 km/h (3 Bft)
04.10.2014 14:48 22,2 C 19,4 C 61 % 1014,4 hPa 0,0 l/m 2 min 0 min 513 W/m 25,1 km/h (4 Bft)
04.10.2014 14:50 22,2 C 19,4 C 62 % 1014,4 hPa 0,0 l/m 2 min 0 min 507 W/m 25,1 km/h (4 Bft)
04.10.2014 14:52 22,2 C 19,4 C 63 % 1014,4 hPa 0,0 l/m 2 min 0 min 497 W/m 27,2 km/h (4 Bft)
04.10.2014 14:54 22,3 C 19,4 C 62 % 1014,4 hPa 0,0 l/m 2 min 0 min 493 W/m 20,9 km/h (4 Bft)
04.10.2014 14:56 22,3 C 19,4 C 61 % 1014,4 hPa 0,0 l/m 2 min 0 min 492 W/m 20,9 km/h (4 Bft)
04.10.2014 14:58 22,3 C 19,4 C 61 % 1014,4 hPa 0,0 l/m 2 min 0 min 495 W/m 29,3 km/h (5 Bft)
04.10.2014 15:00 22,3 C 19,4 C 61 % 1014,4 hPa 0,0 l/m 2 min 0 min 500 W/m 27,2 km/h (4 Bft)
04.10.2014 15:02 22,3 C 19,4 C 61 % 1014,4 hPa 0,0 l/m 2 min 0 min 492 W/m 23,0 km/h (4 Bft)
04.10.2014 15:04 22,4 C 19,4 C 61 % 1014,3 hPa 0,0 l/m 2 min 0 min 494 W/m 18,8 km/h (3 Bft)
04.10.2014 15:06 22,4 C 20,0 C 61 % 1014,3 hPa 0,0 l/m 2 min 0 min 489 W/m 20,9 km/h (4 Bft)
04.10.2014 15:08 22,4 C 19,4 C 62 % 1014,3 hPa 0,0 l/m 2 min 0 min 492 W/m 16,7 km/h (3 Bft)
04.10.2014 15:10 22,5 C 19,4 C 61 % 1014,3 hPa 0,0 l/m 2 min 0 min 482 W/m 18,8 km/h (3 Bft)
04.10.2014 15:12 22,6 C 20,0 C 61 % 1014,2 hPa 0,0 l/m 2 min 0 min 476 W/m 18,8 km/h (3 Bft)
04.10.2014 15:14 22,7 C 20,0 C 61 % 1014,1 hPa 0,0 l/m 2 min 0 min 477 W/m 14,6 km/h (3 Bft)
04.10.2014 15:16 22,7 C 20,0 C 62 % 1014,1 hPa 0,0 l/m 2 min 0 min 467 W/m 25,1 km/h (4 Bft)
04.10.2014 15:18 22,8 C 20,0 C 60 % 1014,1 hPa 0,0 l/m 2 min 0 min 454 W/m 18,8 km/h (3 Bft)
04.10.2014 15:20 22,8 C 20,0 C 59 % 1014,1 hPa 0,0 l/m 2 min 0 min 449 W/m 25,1 km/h (4 Bft)
04.10.2014 15:22 22,8 C 19,4 C 59 % 1014,1 hPa 0,0 l/m 2 min 0 min 453 W/m 25,1 km/h (4 Bft)
04.10.2014 15:24 22,8 C 19,4 C 59 % 1014,1 hPa 0,0 l/m 2 min 0 min 452 W/m 23,0 km/h (4 Bft)
04.10.2014 15:26 22,8 C 19,4 C 59 % 1014,1 hPa 0,0 l/m 2 min 0 min 453 W/m 16,7 km/h (3 Bft)
04.10.2014 15:28 22,8 C 19,4 C 59 % 1014,1 hPa 0,0 l/m 2 min 0 min 455 W/m 29,3 km/h (5 Bft)
04.10.2014 15:30 22,8 C 19,4 C 59 % 1014,1 hPa 0,0 l/m 2 min 0 min 454 W/m 25,1 km/h (4 Bft)
04.10.2014 15:32 22,8 C 19,4 C 59 % 1014,1 hPa 0,0 l/m 2 min 0 min 450 W/m 20,9 km/h (4 Bft)
04.10.2014 15:34 22,8 C 19,4 C 59 % 1014,1 hPa 0,0 l/m 2 min 0 min 444 W/m 25,1 km/h (4 Bft)
04.10.2014 15:36 22,8 C 19,4 C 59 % 1014,1 hPa 0,0 l/m 2 min 0 min 442 W/m 23,0 km/h (4 Bft)
04.10.2014 15:38 22,8 C 19,4 C 59 % 1014,1 hPa 0,0 l/m 2 min 0 min 437 W/m 20,9 km/h (4 Bft)
04.10.2014 15:40 22,8 C 19,4 C 59 % 1014,1 hPa 0,0 l/m 2 min 0 min 434 W/m 25,1 km/h (4 Bft)
04.10.2014 15:42 22,8 C 19,4 C 59 % 1014,1 hPa 0,0 l/m 2 min 0 min 433 W/m 23,0 km/h (4 Bft)
04.10.2014 15:44 22,8 C 19,4 C 59 % 1014,0 hPa 0,0 l/m 2 min 0 min 428 W/m 16,7 km/h (3 Bft)
04.10.2014 15:46 22,8 C 19,4 C 59 % 1014,1 hPa 0,0 l/m 2 min 0 min 422 W/m 14,6 km/h (3 Bft)
04.10.2014 15:48 22,8 C 20,0 C 59 % 1014,1 hPa 0,0 l/m 2 min 0 min 413 W/m 23,0 km/h (4 Bft)
04.10.2014 15:50 22,8 C 19,4 C 59 % 1014,0 hPa 0,0 l/m 2 min 0 min 412 W/m 29,3 km/h (5 Bft)
04.10.2014 15:52 22,8 C 19,4 C 59 % 1014,1 hPa 0,0 l/m 2 min 0 min 410 W/m 25,1 km/h (4 Bft)
04.10.2014 15:54 22,8 C 19,4 C 58 % 1014,0 hPa 0,0 l/m 2 min 0 min 403 W/m 16,7 km/h (3 Bft)
04.10.2014 15:56 22,7 C 20,0 C 59 % 1014,0 hPa 0,0 l/m 2 min 0 min 400 W/m 20,9 km/h (4 Bft)
04.10.2014 15:58 22,7 C 19,4 C 59 % 1014,1 hPa 0,0 l/m 2 min 0 min 394 W/m 29,3 km/h (5 Bft)
04.10.2014 16:00 22,7 C 19,4 C 59 % 1014,0 hPa 0,0 l/m 2 min 0 min 387 W/m 18,8 km/h (3 Bft)
04.10.2014 16:02 22,7 C 19,4 C 59 % 1014,0 hPa 0,0 l/m 2 min 0 min 382 W/m 18,8 km/h (3 Bft)
04.10.2014 16:04 22,7 C 19,4 C 59 % 1014,1 hPa 0,0 l/m 2 min 0 min 376 W/m 20,9 km/h (4 Bft)
04.10.2014 16:06 22,7 C 19,4 C 58 % 1014,1 hPa 0,0 l/m 2 min 0 min 374 W/m 25,1 km/h (4 Bft)
04.10.2014 16:08 22,7 C 19,4 C 59 % 1014,1 hPa 0,0 l/m 2 min 0 min 373 W/m 20,9 km/h (4 Bft)
04.10.2014 16:10 22,7 C 19,4 C 59 % 1014,0 hPa 0,0 l/m 2 min 0 min 370 W/m 23,0 km/h (4 Bft)
04.10.2014 16:12 22,7 C 19,4 C 59 % 1014,0 hPa 0,0 l/m 2 min 0 min 367 W/m 23,0 km/h (4 Bft)
04.10.2014 16:14 22,7 C 19,4 C 59 % 1014,1 hPa 0,0 l/m 2 min 0 min 362 W/m 29,3 km/h (5 Bft)
04.10.2014 16:16 22,7 C 19,4 C 58 % 1014,0 hPa 0,0 l/m 2 min 0 min 356 W/m 20,9 km/h (4 Bft)
04.10.2014 16:18 22,7 C 19,4 C 58 % 1014,0 hPa 0,0 l/m 2 min 0 min 353 W/m 23,0 km/h (4 Bft)
04.10.2014 16:20 22,7 C 19,4 C 58 % 1014,0 hPa 0,0 l/m 2 min 0 min 351 W/m 20,9 km/h (4 Bft)
04.10.2014 16:22 22,7 C 19,4 C 59 % 1013,9 hPa 0,0 l/m 2 min 0 min 347 W/m 16,7 km/h (3 Bft)
04.10.2014 16:24 22,7 C 19,4 C 59 % 1013,9 hPa 0,0 l/m 2 min 0 min 337 W/m 23,0 km/h (4 Bft)
04.10.2014 16:26 22,6 C 19,4 C 58 % 1013,9 hPa 0,0 l/m 2 min 0 min 332 W/m 20,9 km/h (4 Bft)
04.10.2014 16:28 22,6 C 19,4 C 58 % 1013,9 hPa 0,0 l/m 2 min 0 min 330 W/m 23,0 km/h (4 Bft)
04.10.2014 16:30 22,6 C 19,4 C 58 % 1013,8 hPa 0,0 l/m 2 min 0 min 327 W/m 20,9 km/h (4 Bft)
04.10.2014 16:32 22,5 C 19,4 C 58 % 1013,9 hPa 0,0 l/m 2 min 0 min 321 W/m 23,0 km/h (4 Bft)
04.10.2014 16:34 22,5 C 19,4 C 59 % 1013,9 hPa 0,0 l/m 2 min 0 min 321 W/m 23,0 km/h (4 Bft)
04.10.2014 16:36 22,4 C 19,4 C 59 % 1013,8 hPa 0,0 l/m 2 min 0 min 253 W/m 23,0 km/h (4 Bft)
04.10.2014 16:38 22,4 C 18,9 C 59 % 1013,9 hPa 0,0 l/m 2 min 0 min 223 W/m 23,0 km/h (4 Bft)
04.10.2014 16:40 22,3 C 18,9 C 59 % 1013,8 hPa 0,0 l/m 2 min 0 min 217 W/m 27,2 km/h (4 Bft)
04.10.2014 16:42 22,3 C 18,9 C 60 % 1013,8 hPa 0,0 l/m 2 min 0 min 274 W/m 20,9 km/h (4 Bft)
04.10.2014 16:44 22,3 C 18,9 C 60 % 1013,9 hPa 0,0 l/m 2 min 0 min 281 W/m 20,9 km/h (4 Bft)
04.10.2014 16:46 22,2 C 18,9 C 60 % 1013,9 hPa 0,0 l/m 2 min 0 min 263 W/m 14,6 km/h (3 Bft)
04.10.2014 16:48 22,2 C 18,9 C 60 % 1013,9 hPa 0,0 l/m 2 min 0 min 246 W/m 14,6 km/h (3 Bft)
04.10.2014 16:50 22,2 C 18,9 C 60 % 1013,9 hPa 0,0 l/m 2 min 0 min 180 W/m 23,0 km/h (4 Bft)
04.10.2014 16:52 22,2 C 18,9 C 60 % 1013,9 hPa 0,0 l/m 2 min 0 min 151 W/m 16,7 km/h (3 Bft)
04.10.2014 16:54 22,1 C 18,9 C 61 % 1013,9 hPa 0,0 l/m 2 min 0 min 217 W/m 16,7 km/h (3 Bft)
04.10.2014 16:56 22,1 C 18,9 C 61 % 1013,8 hPa 0,0 l/m 2 min 0 min 234 W/m 16,7 km/h (3 Bft)
04.10.2014 16:58 22,0 C 18,9 C 60 % 1013,8 hPa 0,0 l/m 2 min 0 min 229 W/m 20,9 km/h (4 Bft)
04.10.2014 17:00 21,9 C 18,9 C 61 % 1013,9 hPa 0,0 l/m 2 min 0 min 220 W/m 18,8 km/h (3 Bft)
04.10.2014 17:02 21,9 C 18,9 C 60 % 1013,8 hPa 0,0 l/m 2 min 0 min 216 W/m 27,2 km/h (4 Bft)
04.10.2014 17:04 21,8 C 18,9 C 60 % 1013,9 hPa 0,0 l/m 2 min 0 min 214 W/m 25,1 km/h (4 Bft)
04.10.2014 17:06 21,8 C 18,3 C 61 % 1013,8 hPa 0,0 l/m 2 min 0 min 160 W/m 14,6 km/h (3 Bft)
04.10.2014 17:08 21,7 C 18,3 C 61 % 1013,9 hPa 0,0 l/m 2 min 0 min 129 W/m 14,6 km/h (3 Bft)
04.10.2014 17:10 21,7 C 18,3 C 61 % 1013,9 hPa 0,0 l/m 2 min 0 min 132 W/m 23,0 km/h (4 Bft)
04.10.2014 17:12 21,6 C 18,3 C 61 % 1013,8 hPa 0,0 l/m 2 min 0 min 149 W/m 16,7 km/h (3 Bft)
04.10.2014 17:14 21,6 C 18,3 C 62 % 1013,8 hPa 0,0 l/m 2 min 0 min 149 W/m 16,7 km/h (3 Bft)
04.10.2014 17:16 21,4 C 18,3 C 62 % 1013,9 hPa 0,0 l/m 2 min 0 min 134 W/m 16,7 km/h (3 Bft)
04.10.2014 17:18 21,4 C 18,3 C 62 % 1013,8 hPa 0,0 l/m 2 min 0 min 130 W/m 23,0 km/h (4 Bft)
04.10.2014 17:20 21,3 C 18,3 C 62 % 1013,8 hPa 0,0 l/m 2 min 0 min 112 W/m 20,9 km/h (4 Bft)
04.10.2014 17:22 21,2 C 18,3 C 62 % 1013,7 hPa 0,0 l/m 2 min 0 min 101 W/m 18,8 km/h (3 Bft)
04.10.2014 17:24 21,2 C 18,3 C 63 % 1013,9 hPa 0,0 l/m 0 min 0 min 89 W/m 18,8 km/h (3 Bft)
04.10.2014 17:26 21,1 C 17,8 C 63 % 1013,7 hPa 0,0 l/m 0 min 0 min 85 W/m 8,4 km/h (2 Bft)
04.10.2014 17:28 21,1 C 17,8 C 63 % 1013,8 hPa 0,0 l/m 0 min 0 min 83 W/m 14,6 km/h (3 Bft)
04.10.2014 17:30 21,0 C 17,8 C 64 % 1013,7 hPa 0,0 l/m 0 min 0 min 83 W/m 20,9 km/h (4 Bft)
04.10.2014 17:32 20,9 C 17,8 C 64 % 1013,8 hPa 0,0 l/m 2 min 0 min 112 W/m 14,6 km/h (3 Bft)
04.10.2014 17:34 20,9 C 17,8 C 64 % 1013,7 hPa 0,0 l/m 2 min 0 min 120 W/m 18,8 km/h (3 Bft)
04.10.2014 17:36 20,8 C 17,8 C 64 % 1013,7 hPa 0,0 l/m 2 min 0 min 120 W/m 18,8 km/h (3 Bft)
04.10.2014 17:38 20,8 C 17,8 C 64 % 1013,7 hPa 0,0 l/m 2 min 0 min 102 W/m 14,6 km/h (3 Bft)
04.10.2014 17:40 20,7 C 17,8 C 64 % 1013,7 hPa 0,0 l/m 2 min 0 min 80 W/m 12,6 km/h (3 Bft)
04.10.2014 17:42 20,7 C 17,8 C 64 % 1013,8 hPa 0,0 l/m 0 min 0 min 73 W/m 18,8 km/h (3 Bft)
04.10.2014 17:44 20,7 C 17,8 C 65 % 1013,7 hPa 0,0 l/m 0 min 0 min 70 W/m 14,6 km/h (3 Bft)
04.10.2014 17:46 20,6 C 17,8 C 65 % 1013,8 hPa 0,0 l/m 0 min 0 min 69 W/m 12,6 km/h (3 Bft)
04.10.2014 17:48 20,6 C 17,8 C 65 % 1013,7 hPa 0,0 l/m 0 min 0 min 71 W/m 12,6 km/h (3 Bft)
04.10.2014 17:50 20,5 C 17,8 C 65 % 1013,7 hPa 0,0 l/m 2 min 0 min 75 W/m 12,6 km/h (3 Bft)
04.10.2014 17:52 20,4 C 17,2 C 65 % 1013,9 hPa 0,0 l/m 2 min 0 min 75 W/m 10,5 km/h (2 Bft)
04.10.2014 17:54 20,4 C 17,2 C 66 % 1013,8 hPa 0,0 l/m 2 min 0 min 72 W/m 10,5 km/h (2 Bft)
04.10.2014 17:56 20,3 C 17,2 C 66 % 1013,7 hPa 0,0 l/m 2 min 0 min 70 W/m 12,6 km/h (3 Bft)
04.10.2014 17:58 20,3 C 17,2 C 66 % 1013,8 hPa 0,0 l/m 2 min 0 min 64 W/m 12,6 km/h (3 Bft)
04.10.2014 18:00 20,2 C 17,2 C 66 % 1013,7 hPa 0,0 l/m 2 min 0 min 62 W/m 12,6 km/h (3 Bft)
04.10.2014 18:02 20,2 C 17,2 C 66 % 1013,7 hPa 0,0 l/m 2 min 0 min 61 W/m 12,6 km/h (3 Bft)
04.10.2014 18:05 20,1 C 17,2 C 67 % 1013,7 hPa 0,0 l/m 2 min 0 min 58 W/m 12,6 km/h (3 Bft)
04.10.2014 18:06 20,1 C 17,2 C 67 % 1013,6 hPa 0,0 l/m 1 min 0 min 59 W/m 12,6 km/h (3 Bft)
04.10.2014 18:08 20,1 C 17,2 C 67 % 1013,8 hPa 0,0 l/m 2 min 0 min 58 W/m 12,6 km/h (3 Bft)
04.10.2014 18:10 20,0 C 17,2 C 67 % 1013,7 hPa 0,0 l/m 2 min 0 min 56 W/m 10,5 km/h (2 Bft)
04.10.2014 18:12 19,9 C 17,2 C 67 % 1013,7 hPa 0,0 l/m 2 min 0 min 55 W/m 10,5 km/h (2 Bft)
04.10.2014 18:14 19,9 C 17,2 C 67 % 1013,7 hPa 0,0 l/m 2 min 0 min 54 W/m 10,5 km/h (2 Bft)
04.10.2014 18:16 19,8 C 16,7 C 67 % 1013,7 hPa 0,0 l/m 2 min 0 min 53 W/m 10,5 km/h (2 Bft)
04.10.2014 18:18 19,8 C 16,7 C 68 % 1013,7 hPa 0,0 l/m 2 min 0 min 53 W/m 8,4 km/h (2 Bft)
04.10.2014 18:20 19,7 C 16,7 C 68 % 1013,7 hPa 0,0 l/m 2 min 0 min 53 W/m 8,4 km/h (2 Bft)
04.10.2014 18:22 19,7 C 16,7 C 68 % 1013,7 hPa 0,0 l/m 2 min 0 min 53 W/m 10,5 km/h (2 Bft)
04.10.2014 18:24 19,6 C 16,7 C 68 % 1013,7 hPa 0,0 l/m 2 min 0 min 51 W/m 12,6 km/h (3 Bft)
04.10.2014 18:26 19,6 C 16,7 C 68 % 1013,6 hPa 0,0 l/m 2 min 0 min 49 W/m 8,4 km/h (2 Bft)
04.10.2014 18:28 19,5 C 16,7 C 68 % 1013,7 hPa 0,0 l/m 2 min 0 min 46 W/m 8,4 km/h (2 Bft)
04.10.2014 18:30 19,5 C 16,7 C 68 % 1013,7 hPa 0,0 l/m 2 min 0 min 44 W/m 12,6 km/h (3 Bft)
04.10.2014 18:32 19,4 C 16,7 C 69 % 1013,7 hPa 0,0 l/m 2 min 0 min 40 W/m 12,6 km/h (3 Bft)
04.10.2014 18:34 19,4 C 16,7 C 69 % 1013,7 hPa 0,0 l/m 2 min 0 min 39 W/m 12,6 km/h (3 Bft)
04.10.2014 18:36 19,3 C 16,7 C 69 % 1013,7 hPa 0,0 l/m 2 min 0 min 37 W/m 6,3 km/h (2 Bft)
04.10.2014 18:38 19,3 C 16,7 C 69 % 1013,7 hPa 0,0 l/m 2 min 0 min 33 W/m 6,3 km/h (2 Bft)
04.10.2014 18:40 19,2 C 16,7 C 69 % 1013,7 hPa 0,0 l/m 2 min 0 min 32 W/m 10,5 km/h (2 Bft)
04.10.2014 18:42 19,2 C 16,7 C 69 % 1013,6 hPa 0,0 l/m 2 min 0 min 30 W/m 10,5 km/h (2 Bft)
04.10.2014 18:44 19,2 C 16,1 C 69 % 1013,6 hPa 0,0 l/m 2 min 0 min 27 W/m 8,4 km/h (2 Bft)
04.10.2014 18:46 19,1 C 16,1 C 69 % 1013,7 hPa 0,0 l/m 2 min 0 min 25 W/m 10,5 km/h (2 Bft)
04.10.2014 18:48 19,1 C 16,1 C 70 % 1013,7 hPa 0,0 l/m 2 min 0 min 22 W/m 10,5 km/h (2 Bft)
04.10.2014 18:50 19,0 C 16,1 C 70 % 1013,6 hPa 0,0 l/m 2 min 0 min 19 W/m 8,4 km/h (2 Bft)
04.10.2014 18:52 18,9 C 16,1 C 70 % 1013,6 hPa 0,0 l/m 2 min 0 min 17 W/m 6,3 km/h (2 Bft)
04.10.2014 18:54 18,9 C 16,1 C 70 % 1013,7 hPa 0,0 l/m 2 min 0 min 14 W/m 8,4 km/h (2 Bft)
04.10.2014 18:56 18,8 C 16,1 C 70 % 1013,7 hPa 0,0 l/m 0 min 0 min 12 W/m 8,4 km/h (2 Bft)
04.10.2014 18:58 18,8 C 16,1 C 70 % 1013,7 hPa 0,0 l/m 0 min 0 min 9 W/m 12,6 km/h (3 Bft)
04.10.2014 19:00 18,7 C 15,6 C 70 % 1013,7 hPa 0,0 l/m 0 min 0 min 6 W/m 8,4 km/h (2 Bft)
04.10.2014 19:02 18,7 C 15,6 C 70 % 1013,7 hPa 0,0 l/m 0 min 0 min 5 W/m 6,3 km/h (2 Bft)
04.10.2014 19:04 18,7 C 15,6 C 70 % 1013,7 hPa 0,0 l/m 0 min 0 min 2 W/m 8,4 km/h (2 Bft)
04.10.2014 19:06 18,6 C 15,6 C 71 % 1013,7 hPa 0,0 l/m 0 min 0 min 0 W/m 8,4 km/h (2 Bft)
04.10.2014 19:08 18,6 C 15,6 C 71 % 1013,6 hPa 0,0 l/m 0 min 0 min 0 W/m 8,4 km/h (2 Bft)
04.10.2014 19:10 18,5 C 15,6 C 71 % 1013,6 hPa 0,0 l/m 0 min 0 min 0 W/m 6,3 km/h (2 Bft)
04.10.2014 19:12 18,4 C 15,6 C 71 % 1013,6 hPa 0,0 l/m 0 min 0 min 0 W/m 6,3 km/h (2 Bft)
04.10.2014 19:14 18,4 C 15,0 C 71 % 1013,5 hPa 0,0 l/m 0 min 0 min 0 W/m 12,6 km/h (3 Bft)
04.10.2014 19:16 18,3 C 15,0 C 71 % 1013,5 hPa 0,0 l/m 0 min 0 min 0 W/m 8,4 km/h (2 Bft)
04.10.2014 19:18 18,3 C 15,0 C 71 % 1013,6 hPa 0,0 l/m 0 min 0 min 0 W/m 8,4 km/h (2 Bft)
04.10.2014 19:20 18,2 C 15,0 C 71 % 1013,5 hPa 0,0 l/m 0 min 0 min 0 W/m 10,5 km/h (2 Bft)
04.10.2014 19:22 18,2 C 15,0 C 72 % 1013,5 hPa 0,0 l/m 0 min 0 min 0 W/m 8,4 km/h (2 Bft)
04.10.2014 19:24 18,1 C 15,0 C 72 % 1013,5 hPa 0,0 l/m 0 min 0 min 0 W/m 10,5 km/h (2 Bft)
04.10.2014 19:26 18,1 C 15,0 C 72 % 1013,4 hPa 0,0 l/m 0 min 0 min 0 W/m 12,6 km/h (3 Bft)
04.10.2014 19:28 18,0 C 15,0 C 72 % 1013,5 hPa 0,0 l/m 0 min 0 min 0 W/m 10,5 km/h (2 Bft)
04.10.2014 19:30 17,9 C 15,0 C 72 % 1013,5 hPa 0,0 l/m 0 min 0 min 0 W/m 10,5 km/h (2 Bft)
04.10.2014 19:32 17,9 C 15,0 C 72 % 1013,5 hPa 0,0 l/m 0 min 0 min 0 W/m 10,5 km/h (2 Bft)
04.10.2014 19:34 17,8 C 15,0 C 72 % 1013,5 hPa 0,0 l/m 0 min 0 min 0 W/m 12,6 km/h (3 Bft)
04.10.2014 19:36 17,8 C 15,0 C 73 % 1013,5 hPa 0,0 l/m 0 min 0 min 0 W/m 8,4 km/h (2 Bft)
04.10.2014 19:38 17,7 C 15,0 C 73 % 1013,5 hPa 0,0 l/m 0 min 0 min 0 W/m 8,4 km/h (2 Bft)
04.10.2014 19:40 17,7 C 15,0 C 73 % 1013,4 hPa 0,0 l/m 0 min 0 min 0 W/m 10,5 km/h (2 Bft)
04.10.2014 19:42 17,6 C 15,0 C 73 % 1013,4 hPa 0,0 l/m 0 min 0 min 0 W/m 8,4 km/h (2 Bft)
04.10.2014 19:44 17,6 C 15,0 C 73 % 1013,5 hPa 0,0 l/m 0 min 0 min 0 W/m 8,4 km/h (2 Bft)
04.10.2014 19:46 17,5 C 15,0 C 73 % 1013,4 hPa 0,0 l/m 0 min 0 min 0 W/m 10,5 km/h (2 Bft)
04.10.2014 19:48 17,4 C 15,0 C 73 % 1013,5 hPa 0,0 l/m 0 min 0 min 0 W/m 8,4 km/h (2 Bft)
04.10.2014 19:50 17,4 C 15,0 C 74 % 1013,5 hPa 0,0 l/m 0 min 0 min 0 W/m 8,4 km/h (2 Bft)
04.10.2014 19:52 17,4 C 15,0 C 74 % 1013,5 hPa 0,0 l/m 0 min 0 min 0 W/m 8,4 km/h (2 Bft)
04.10.2014 19:54 17,3 C 15,0 C 74 % 1013,5 hPa 0,0 l/m 0 min 0 min 0 W/m 6,3 km/h (2 Bft)
04.10.2014 19:56 17,3 C 15,0 C 74 % 1013,5 hPa 0,0 l/m 0 min 0 min 0 W/m 8,4 km/h (2 Bft)
04.10.2014 19:58 17,2 C 14,4 C 74 % 1013,5 hPa 0,0 l/m 0 min 0 min 0 W/m 10,5 km/h (2 Bft)
04.10.2014 20:00 17,2 C 14,4 C 74 % 1013,5 hPa 0,0 l/m 0 min 0 min 0 W/m 12,6 km/h (3 Bft)
04.10.2014 20:02 17,2 C 14,4 C 74 % 1013,5 hPa 0,0 l/m 0 min 0 min 0 W/m 8,4 km/h (2 Bft)
04.10.2014 20:04 17,1 C 14,4 C 74 % 1013,5 hPa 0,0 l/m 0 min 0 min 0 W/m 6,3 km/h (2 Bft)
04.10.2014 20:06 17,1 C 14,4 C 75 % 1013,5 hPa 0,0 l/m 0 min 0 min 0 W/m 8,4 km/h (2 Bft)
04.10.2014 20:08 17,0 C 14,4 C 75 % 1013,6 hPa 0,0 l/m 0 min 0 min 0 W/m 12,6 km/h (3 Bft)
04.10.2014 20:10 17,0 C 14,4 C 75 % 1013,6 hPa 0,0 l/m 0 min 0 min 0 W/m 12,6 km/h (3 Bft)
04.10.2014 20:12 16,9 C 14,4 C 75 % 1013,6 hPa 0,0 l/m 0 min 0 min 0 W/m 14,6 km/h (3 Bft)
04.10.2014 20:14 16,9 C 14,4 C 75 % 1013,5 hPa 0,0 l/m 0 min 0 min 0 W/m 12,6 km/h (3 Bft)
04.10.2014 20:16 16,8 C 14,4 C 75 % 1013,6 hPa 0,0 l/m 0 min 0 min 0 W/m 10,5 km/h (2 Bft)
04.10.2014 20:18 16,8 C 14,4 C 75 % 1013,7 hPa 0,0 l/m 0 min 0 min 0 W/m 10,5 km/h (2 Bft)
04.10.2014 20:20 16,8 C 14,4 C 75 % 1013,6 hPa 0,0 l/m 0 min 0 min 0 W/m 12,6 km/h (3 Bft)
04.10.2014 20:22 16,7 C 14,4 C 76 % 1013,6 hPa 0,0 l/m 0 min 0 min 0 W/m 12,6 km/h (3 Bft)
04.10.2014 20:24 16,7 C 14,4 C 76 % 1013,6 hPa 0,0 l/m 0 min 0 min 0 W/m 10,5 km/h (2 Bft)
04.10.2014 20:26 16,7 C 14,4 C 76 % 1013,7 hPa 0,0 l/m 0 min 0 min 0 W/m 10,5 km/h (2 Bft)
04.10.2014 20:28 16,6 C 14,4 C 76 % 1013,7 hPa 0,0 l/m 0 min 0 min 0 W/m 12,6 km/h (3 Bft)
04.10.2014 20:30 16,6 C 14,4 C 76 % 1013,7 hPa 0,0 l/m 0 min 0 min 0 W/m 6,3 km/h (2 Bft)
04.10.2014 20:32 16,6 C 14,4 C 76 % 1013,7 hPa 0,0 l/m 0 min 0 min 0 W/m 8,4 km/h (2 Bft)
04.10.2014 20:34 16,6 C 14,4 C 77 % 1013,7 hPa 0,0 l/m 0 min 0 min 0 W/m 8,4 km/h (2 Bft)
04.10.2014 20:36 16,5 C 14,4 C 77 % 1013,7 hPa 0,0 l/m 0 min 0 min 0 W/m 12,6 km/h (3 Bft)
04.10.2014 20:38 16,5 C 14,4 C 77 % 1013,8 hPa 0,0 l/m 0 min 0 min 0 W/m 10,5 km/h (2 Bft)
04.10.2014 20:40 16,4 C 14,4 C 77 % 1013,8 hPa 0,0 l/m 0 min 0 min 0 W/m 10,5 km/h (2 Bft)
04.10.2014 20:42 16,4 C 14,4 C 77 % 1013,8 hPa 0,0 l/m 0 min 0 min 0 W/m 8,4 km/h (2 Bft)
04.10.2014 20:44 16,4 C 14,4 C 77 % 1013,8 hPa 0,0 l/m 0 min 0 min 0 W/m 10,5 km/h (2 Bft)
04.10.2014 20:46 16,4 C 14,4 C 78 % 1013,7 hPa 0,0 l/m 0 min 0 min 0 W/m 8,4 km/h (2 Bft)
04.10.2014 20:48 16,3 C 13,9 C 78 % 1013,7 hPa 0,0 l/m 0 min 0 min 0 W/m 8,4 km/h (2 Bft)
04.10.2014 20:50 16,3 C 13,9 C 78 % 1013,8 hPa 0,0 l/m 0 min 0 min 0 W/m 8,4 km/h (2 Bft)
04.10.2014 20:52 16,3 C 13,9 C 78 % 1013,8 hPa 0,0 l/m 0 min 0 min 0 W/m 8,4 km/h (2 Bft)
04.10.2014 20:54 16,2 C 13,9 C 78 % 1013,8 hPa 0,0 l/m 0 min 0 min 0 W/m 8,4 km/h (2 Bft)
04.10.2014 20:56 16,2 C 13,9 C 78 % 1013,8 hPa 0,0 l/m 0 min 0 min 0 W/m 8,4 km/h (2 Bft)
04.10.2014 20:58 16,2 C 13,9 C 78 % 1013,8 hPa 0,0 l/m 0 min 0 min 0 W/m 8,4 km/h (2 Bft)
04.10.2014 21:00 16,2 C 13,9 C 78 % 1013,8 hPa 0,0 l/m 0 min 0 min 0 W/m 8,4 km/h (2 Bft)
04.10.2014 21:02 16,1 C 13,9 C 78 % 1013,9 hPa 0,0 l/m 0 min 0 min 0 W/m 8,4 km/h (2 Bft)
04.10.2014 21:04 16,1 C 13,9 C 79 % 1013,8 hPa 0,0 l/m 0 min 0 min 0 W/m 6,3 km/h (2 Bft)
04.10.2014 21:06 16,1 C 13,9 C 79 % 1013,8 hPa 0,0 l/m 0 min 0 min 0 W/m 6,3 km/h (2 Bft)
04.10.2014 21:08 16,1 C 13,9 C 79 % 1013,8 hPa 0,0 l/m 0 min 0 min 0 W/m 8,4 km/h (2 Bft)
04.10.2014 21:10 16,0 C 13,9 C 79 % 1013,9 hPa 0,0 l/m 0 min 0 min 0 W/m 8,4 km/h (2 Bft)
04.10.2014 21:12 15,9 C 13,9 C 79 % 1013,9 hPa 0,0 l/m 0 min 0 min 0 W/m 8,4 km/h (2 Bft)
04.10.2014 21:14 15,9 C 13,9 C 80 % 1013,9 hPa 0,0 l/m 0 min 0 min 0 W/m 8,4 km/h (2 Bft)
04.10.2014 21:16 15,9 C 13,9 C 80 % 1014,0 hPa 0,0 l/m 0 min 0 min 0 W/m 8,4 km/h (2 Bft)
04.10.2014 21:18 15,9 C 13,9 C 80 % 1014,0 hPa 0,0 l/m 0 min 0 min 0 W/m 8,4 km/h (2 Bft)
04.10.2014 21:20 15,8 C 13,9 C 80 % 1014,1 hPa 0,0 l/m 0 min 0 min 0 W/m 8,4 km/h (2 Bft)
04.10.2014 21:22 15,8 C 13,9 C 80 % 1014,1 hPa 0,0 l/m 0 min 0 min 0 W/m 8,4 km/h (2 Bft)
04.10.2014 21:24 15,8 C 13,9 C 80 % 1014,1 hPa 0,0 l/m 0 min 0 min 0 W/m 6,3 km/h (2 Bft)
04.10.2014 21:26 15,8 C 13,9 C 80 % 1014,1 hPa 0,0 l/m 0 min 0 min 0 W/m 6,3 km/h (2 Bft)
04.10.2014 21:28 15,7 C 13,9 C 80 % 1014,1 hPa 0,0 l/m 0 min 0 min 0 W/m 6,3 km/h (2 Bft)
04.10.2014 21:30 15,7 C 13,9 C 81 % 1014,1 hPa 0,0 l/m 0 min 0 min 0 W/m 8,4 km/h (2 Bft)
04.10.2014 21:32 15,7 C 13,9 C 81 % 1014,1 hPa 0,0 l/m 0 min 0 min 0 W/m 6,3 km/h (2 Bft)
04.10.2014 21:34 15,7 C 13,3 C 81 % 1014,1 hPa 0,0 l/m 0 min 0 min 0 W/m 8,4 km/h (2 Bft)
04.10.2014 21:36 15,7 C 13,3 C 81 % 1014,1 hPa 0,0 l/m 0 min 0 min 0 W/m 8,4 km/h (2 Bft)
04.10.2014 21:38 15,6 C 13,3 C 81 % 1014,1 hPa 0,0 l/m 0 min 0 min 0 W/m 8,4 km/h (2 Bft)
04.10.2014 21:40 15,6 C 13,3 C 81 % 1014,2 hPa 0,0 l/m 0 min 0 min 0 W/m 4,2 km/h (1 Bft)
04.10.2014 21:42 15,6 C 13,3 C 81 % 1014,1 hPa 0,0 l/m 0 min 0 min 0 W/m 6,3 km/h (2 Bft)
04.10.2014 21:44 15,5 C 13,3 C 81 % 1014,2 hPa 0,0 l/m 0 min 0 min 0 W/m 8,4 km/h (2 Bft)
04.10.2014 21:46 15,5 C 13,3 C 82 % 1014,1 hPa 0,0 l/m 0 min 0 min 0 W/m 4,2 km/h (1 Bft)
04.10.2014 21:48 15,4 C 13,3 C 82 % 1014,1 hPa 0,0 l/m 0 min 0 min 0 W/m 6,3 km/h (2 Bft)
04.10.2014 21:50 15,4 C 13,3 C 82 % 1014,2 hPa 0,0 l/m 0 min 0 min 0 W/m 6,3 km/h (2 Bft)
04.10.2014 21:52 15,4 C 13,3 C 82 % 1014,3 hPa 0,0 l/m 0 min 0 min 0 W/m 8,4 km/h (2 Bft)
04.10.2014 21:54 15,4 C 13,3 C 82 % 1014,2 hPa 0,0 l/m 0 min 0 min 0 W/m 6,3 km/h (2 Bft)
04.10.2014 21:56 15,3 C 13,3 C 82 % 1014,3 hPa 0,0 l/m 0 min 0 min 0 W/m 6,3 km/h (2 Bft)
04.10.2014 21:58 15,3 C 13,3 C 82 % 1014,3 hPa 0,0 l/m 0 min 0 min 0 W/m 4,2 km/h (1 Bft)
04.10.2014 22:00 15,3 C 13,3 C 82 % 1014,3 hPa 0,0 l/m 0 min 0 min 0 W/m 8,4 km/h (2 Bft)
04.10.2014 22:02 15,3 C 13,3 C 82 % 1014,2 hPa 0,0 l/m 0 min 0 min 0 W/m 6,3 km/h (2 Bft)
04.10.2014 22:04 15,2 C 13,3 C 83 % 1014,3 hPa 0,0 l/m 0 min 0 min 0 W/m 6,3 km/h (2 Bft)
04.10.2014 22:06 15,2 C 13,3 C 83 % 1014,3 hPa 0,0 l/m 0 min 0 min 0 W/m 6,3 km/h (2 Bft)
04.10.2014 22:08 15,2 C 13,3 C 83 % 1014,3 hPa 0,0 l/m 0 min 0 min 0 W/m 6,3 km/h (2 Bft)
04.10.2014 22:10 15,2 C 13,3 C 83 % 1014,2 hPa 0,0 l/m 0 min 0 min 0 W/m 8,4 km/h (2 Bft)
04.10.2014 22:12 15,1 C 13,3 C 83 % 1014,3 hPa 0,0 l/m 0 min 0 min 0 W/m 6,3 km/h (2 Bft)
04.10.2014 22:14 15,1 C 13,3 C 83 % 1014,3 hPa 0,0 l/m 0 min 0 min 0 W/m 6,3 km/h (2 Bft)
04.10.2014 22:16 15,1 C 13,3 C 83 % 1014,3 hPa 0,0 l/m 0 min 0 min 0 W/m 10,5 km/h (2 Bft)
04.10.2014 22:18 15,1 C 13,3 C 84 % 1014,3 hPa 0,0 l/m 0 min 0 min 0 W/m 8,4 km/h (2 Bft)
04.10.2014 22:20 15,0 C 13,3 C 84 % 1014,3 hPa 0,0 l/m 0 min 0 min 0 W/m 10,5 km/h (2 Bft)
04.10.2014 22:22 15,0 C 13,3 C 84 % 1014,3 hPa 0,0 l/m 0 min 0 min 0 W/m 6,3 km/h (2 Bft)
04.10.2014 22:24 14,9 C 13,3 C 84 % 1014,3 hPa 0,0 l/m 0 min 0 min 0 W/m 6,3 km/h (2 Bft)
04.10.2014 22:26 14,9 C 13,3 C 84 % 1014,4 hPa 0,0 l/m 0 min 0 min 0 W/m 6,3 km/h (2 Bft)
04.10.2014 22:28 14,9 C 13,3 C 84 % 1014,3 hPa 0,0 l/m 0 min 0 min 0 W/m 8,4 km/h (2 Bft)
04.10.2014 22:30 14,9 C 13,3 C 84 % 1014,3 hPa 0,0 l/m 0 min 0 min 0 W/m 6,3 km/h (2 Bft)
04.10.2014 22:32 14,8 C 13,3 C 84 % 1014,5 hPa 0,0 l/m 0 min 0 min 0 W/m 6,3 km/h (2 Bft)
04.10.2014 22:34 14,8 C 13,3 C 84 % 1014,3 hPa 0,0 l/m 0 min 0 min 0 W/m 6,3 km/h (2 Bft)
04.10.2014 22:36 14,8 C 13,3 C 85 % 1014,3 hPa 0,0 l/m 0 min 0 min 0 W/m 10,5 km/h (2 Bft)
04.10.2014 22:38 14,8 C 13,3 C 85 % 1014,3 hPa 0,0 l/m 0 min 0 min 0 W/m 6,3 km/h (2 Bft)
04.10.2014 22:40 14,8 C 13,3 C 85 % 1014,3 hPa 0,0 l/m 0 min 0 min 0 W/m 6,3 km/h (2 Bft)
04.10.2014 22:42 14,8 C 13,3 C 85 % 1014,3 hPa 0,0 l/m 0 min 0 min 0 W/m 6,3 km/h (2 Bft)
04.10.2014 22:44 14,7 C 13,3 C 85 % 1014,3 hPa 0,0 l/m 0 min 0 min 0 W/m 8,4 km/h (2 Bft)
04.10.2014 22:46 14,7 C 13,3 C 85 % 1014,3 hPa 0,0 l/m 0 min 0 min 0 W/m 6,3 km/h (2 Bft)
04.10.2014 22:48 14,7 C 13,3 C 85 % 1014,4 hPa 0,0 l/m 0 min 0 min 0 W/m 6,3 km/h (2 Bft)
04.10.2014 22:50 14,7 C 13,3 C 85 % 1014,3 hPa 0,0 l/m 0 min 0 min 0 W/m 6,3 km/h (2 Bft)
04.10.2014 22:52 14,7 C 12,8 C 85 % 1014,4 hPa 0,0 l/m 0 min 0 min 0 W/m 6,3 km/h (2 Bft)
04.10.2014 22:54 14,7 C 12,8 C 85 % 1014,4 hPa 0,0 l/m 0 min 0 min 0 W/m 8,4 km/h (2 Bft)
04.10.2014 22:56 14,7 C 12,8 C 85 % 1014,5 hPa 0,0 l/m 0 min 0 min 0 W/m 6,3 km/h (2 Bft)
04.10.2014 22:58 14,7 C 12,8 C 85 % 1014,5 hPa 0,0 l/m 0 min 0 min 0 W/m 10,5 km/h (2 Bft)
04.10.2014 23:00 14,7 C 12,8 C 85 % 1014,4 hPa 0,0 l/m 0 min 0 min 0 W/m 6,3 km/h (2 Bft)
04.10.2014 23:02 14,6 C 12,8 C 85 % 1014,5 hPa 0,0 l/m 0 min 0 min 0 W/m 8,4 km/h (2 Bft)
04.10.2014 23:04 14,6 C 12,8 C 85 % 1014,5 hPa 0,0 l/m 0 min 0 min 0 W/m 8,4 km/h (2 Bft)
04.10.2014 23:06 14,6 C 13,3 C 85 % 1014,5 hPa 0,0 l/m 0 min 0 min 0 W/m 8,4 km/h (2 Bft)
04.10.2014 23:08 14,6 C 12,8 C 86 % 1014,6 hPa 0,0 l/m 0 min 0 min 0 W/m 6,3 km/h (2 Bft)
04.10.2014 23:10 14,6 C 12,8 C 86 % 1014,6 hPa 0,0 l/m 0 min 0 min 0 W/m 8,4 km/h (2 Bft)
04.10.2014 23:12 14,6 C 12,8 C 86 % 1014,6 hPa 0,0 l/m 0 min 0 min 0 W/m 6,3 km/h (2 Bft)
04.10.2014 23:14 14,6 C 12,8 C 86 % 1014,6 hPa 0,0 l/m 0 min 0 min 0 W/m 4,2 km/h (1 Bft)
04.10.2014 23:16 14,5 C 12,8 C 86 % 1014,7 hPa 0,0 l/m 0 min 0 min 0 W/m 4,2 km/h (1 Bft)
04.10.2014 23:18 14,5 C 12,8 C 86 % 1014,6 hPa 0,0 l/m 0 min 0 min 0 W/m 4,2 km/h (1 Bft)
04.10.2014 23:20 14,5 C 12,8 C 86 % 1014,6 hPa 0,0 l/m 0 min 0 min 0 W/m 6,3 km/h (2 Bft)
04.10.2014 23:22 14,5 C 12,8 C 86 % 1014,6 hPa 0,0 l/m 0 min 0 min 0 W/m 4,2 km/h (1 Bft)
04.10.2014 23:24 14,5 C 12,8 C 86 % 1014,6 hPa 0,0 l/m 0 min 0 min 0 W/m 4,2 km/h (1 Bft)
04.10.2014 23:26 14,4 C 12,8 C 86 % 1014,7 hPa 0,0 l/m 0 min 0 min 0 W/m 6,3 km/h (2 Bft)
04.10.2014 23:28 14,4 C 12,8 C 86 % 1014,7 hPa 0,0 l/m 0 min 0 min 0 W/m 4,2 km/h (1 Bft)
04.10.2014 23:30 14,4 C 12,8 C 86 % 1014,7 hPa 0,0 l/m 0 min 0 min 0 W/m 4,2 km/h (1 Bft)
04.10.2014 23:32 14,4 C 12,2 C 86 % 1014,7 hPa 0,0 l/m 0 min 0 min 0 W/m 6,3 km/h (2 Bft)
04.10.2014 23:34 14,4 C 12,2 C 86 % 1014,7 hPa 0,0 l/m 0 min 0 min 0 W/m 6,3 km/h (2 Bft)
04.10.2014 23:36 14,4 C 12,2 C 86 % 1014,7 hPa 0,0 l/m 0 min 0 min 0 W/m 6,3 km/h (2 Bft)
04.10.2014 23:38 14,4 C 12,2 C 86 % 1014,7 hPa 0,0 l/m 0 min 0 min 0 W/m 6,3 km/h (2 Bft)
04.10.2014 23:40 14,3 C 12,2 C 86 % 1014,7 hPa 0,0 l/m 0 min 0 min 0 W/m 6,3 km/h (2 Bft)
04.10.2014 23:42 14,3 C 12,2 C 86 % 1014,6 hPa 0,0 l/m 0 min 0 min 0 W/m 4,2 km/h (1 Bft)
04.10.2014 23:44 14,3 C 12,2 C 86 % 1014,7 hPa 0,0 l/m 0 min 0 min 0 W/m 6,3 km/h (2 Bft)
04.10.2014 23:46 14,2 C 12,2 C 86 % 1014,7 hPa 0,0 l/m 0 min 0 min 0 W/m 6,3 km/h (2 Bft)
04.10.2014 23:48 14,2 C 12,8 C 86 % 1014,7 hPa 0,0 l/m 0 min 0 min 0 W/m 6,3 km/h (2 Bft)
04.10.2014 23:50 14,2 C 12,8 C 87 % 1014,7 hPa 0,0 l/m 0 min 0 min 0 W/m 6,3 km/h (2 Bft)
04.10.2014 23:52 14,2 C 12,8 C 87 % 1014,7 hPa 0,0 l/m 0 min 0 min 0 W/m 6,3 km/h (2 Bft)
04.10.2014 23:54 14,2 C 12,8 C 87 % 1014,7 hPa 0,0 l/m 0 min 0 min 0 W/m 4,2 km/h (1 Bft)
04.10.2014 23:56 14,2 C 12,8 C 87 % 1014,6 hPa 0,0 l/m 0 min 0 min 0 W/m 4,2 km/h (1 Bft)
04.10.2014 23:58 14,2 C 12,8 C 87 % 1014,6 hPa 0,0 l/m 0 min 0 min 0 W/m 6,3 km/h (2 Bft)
_ Min-Zeit 08:22 06:30 15:54 19:26 - - - - 00:02
Minimum _ 11,0 C 10,0 C 58 % 1013,4 hPa - - - - 4,2 km/h (1 Bft)
_ Max-Zeit 15:40 15:06 08:58 00:00 00:00 07:54 00:00 13:22 13:00
Maximum _ 22,9 C 20,0 C 97 % 1020,9 hPa 0,0 l/m 2 min 0 min 576 W/m 39,7 km/h
SO (6 Bft)
Durchschnitt _ 16,1 C 14,1 C 82 % 1016,4 hPa #0,0 l/m #10:44 h #0 min. 323 W/m 14,4 km/h (3 Bft)
© 2014 W. Hausmann